<?xml version='1.0' encoding='UTF-8'?><gpx version="1.1" creator="JPX - https://github.com/jenetics/jpx" xmlns="http://www.topografix.com/GPX/1/1"><trk><trkseg><trkpt lat="45.6596036" lon="10.2365053"><ele>481.99999999999994</ele><time>2026-05-04T19:53:04.988Z</time></trkpt><trkpt lat="45.6596796" lon="10.2364897"><ele>482.0</ele><time>2026-05-04T19:53:07.009Z</time></trkpt><trkpt lat="45.6597312" lon="10.2364325"><ele>482.0</ele><time>2026-05-04T19:53:13.945Z</time></trkpt><trkpt lat="45.6597199" lon="10.2363202"><ele>482.0</ele><time>2026-05-04T19:53:16.946Z</time></trkpt><trkpt lat="45.659714" lon="10.2361856"><ele>481.99999999999994</ele><time>2026-05-04T19:53:18.948Z</time></trkpt><trkpt lat="45.6597014" lon="10.2360851"><ele>482.0</ele><time>2026-05-04T19:53:19.946Z</time></trkpt><trkpt lat="45.6596864" lon="10.2359515"><ele>480.5</ele><time>2026-05-04T19:53:21.009Z</time></trkpt><trkpt lat="45.6596632" lon="10.2357858"><ele>479.0</ele><time>2026-05-04T19:53:22.009Z</time></trkpt><trkpt lat="45.6596387" lon="10.2356219"><ele>477.5</ele><time>2026-05-04T19:53:23.01Z</time></trkpt><trkpt lat="45.6596135" lon="10.2354451"><ele>476.0</ele><time>2026-05-04T19:53:24.009Z</time></trkpt><trkpt lat="45.6595877" lon="10.2352675"><ele>476.0</ele><time>2026-05-04T19:53:25.009Z</time></trkpt><trkpt lat="45.6595679" lon="10.2351194"><ele>476.0</ele><time>2026-05-04T19:53:26.009Z</time></trkpt><trkpt lat="45.6595274" lon="10.2349618"><ele>476.0</ele><time>2026-05-04T19:53:27.009Z</time></trkpt><trkpt lat="45.6594553" lon="10.2346628"><ele>476.0</ele><time>2026-05-04T19:53:29.009Z</time></trkpt><trkpt lat="45.659441" lon="10.2345123"><ele>466.5</ele><time>2026-05-04T19:53:30.009Z</time></trkpt><trkpt lat="45.6594252" lon="10.2343721"><ele>457.0</ele><time>2026-05-04T19:53:31.009Z</time></trkpt><trkpt lat="45.6594127" lon="10.2342396"><ele>447.5</ele><time>2026-05-04T19:53:31.946Z</time></trkpt><trkpt lat="45.6594001" lon="10.2340142"><ele>438.0</ele><time>2026-05-04T19:53:34.009Z</time></trkpt><trkpt lat="45.659375" lon="10.2338412"><ele>437.79999999999995</ele><time>2026-05-04T19:53:36.009Z</time></trkpt><trkpt lat="45.6593149" lon="10.2337357"><ele>437.59999999999997</ele><time>2026-05-04T19:53:38.009Z</time></trkpt><trkpt lat="45.659208" lon="10.2336837"><ele>437.40000000000003</ele><time>2026-05-04T19:53:40.009Z</time></trkpt><trkpt lat="45.6590833" lon="10.2336218"><ele>437.20000000000005</ele><time>2026-05-04T19:53:42.009Z</time></trkpt><trkpt lat="45.6589884" lon="10.2335937"><ele>437.0</ele><time>2026-05-04T19:53:44.009Z</time></trkpt><trkpt lat="45.6589135" lon="10.2336745"><ele>437.0</ele><time>2026-05-04T19:53:46.009Z</time></trkpt><trkpt lat="45.6588949" lon="10.2338208"><ele>437.00000000000006</ele><time>2026-05-04T19:53:48.009Z</time></trkpt><trkpt lat="45.6588988" lon="10.2339451"><ele>437.00000000000006</ele><time>2026-05-04T19:53:50.009Z</time></trkpt><trkpt lat="45.6588331" lon="10.2339174"><ele>437.0</ele><time>2026-05-04T19:53:54.009Z</time></trkpt><trkpt lat="45.6587771" lon="10.2337424"><ele>437.0</ele><time>2026-05-04T19:53:56.009Z</time></trkpt><trkpt lat="45.6587517" lon="10.2336391"><ele>437.0</ele><time>2026-05-04T19:53:57.009Z</time></trkpt><trkpt lat="45.6587181" lon="10.2335469"><ele>437.00000000000006</ele><time>2026-05-04T19:53:58.009Z</time></trkpt><trkpt lat="45.6586912" lon="10.2334459"><ele>437.00000000000006</ele><time>2026-05-04T19:53:59.009Z</time></trkpt><trkpt lat="45.6587107" lon="10.2332954"><ele>437.0</ele><time>2026-05-04T19:54:01.009Z</time></trkpt><trkpt lat="45.6587254" lon="10.2331995"><ele>437.0</ele><time>2026-05-04T19:54:02.009Z</time></trkpt><trkpt lat="45.65879" lon="10.2330347"><ele>436.20000000000005</ele><time>2026-05-04T19:54:04.009Z</time></trkpt><trkpt lat="45.6588118" lon="10.2329409"><ele>435.40000000000003</ele><time>2026-05-04T19:54:04.947Z</time></trkpt><trkpt lat="45.6588928" lon="10.2327692"><ele>434.59999999999997</ele><time>2026-05-04T19:54:06.948Z</time></trkpt><trkpt lat="45.6589167" lon="10.2326586"><ele>433.79999999999995</ele><time>2026-05-04T19:54:08.009Z</time></trkpt><trkpt lat="45.6589436" lon="10.2325518"><ele>433.0</ele><time>2026-05-04T19:54:08.946Z</time></trkpt><trkpt lat="45.6589607" lon="10.2324459"><ele>433.00000000000006</ele><time>2026-05-04T19:54:09.943Z</time></trkpt><trkpt lat="45.6589715" lon="10.2323557"><ele>433.0</ele><time>2026-05-04T19:54:11.009Z</time></trkpt><trkpt lat="45.6589707" lon="10.2322497"><ele>433.0</ele><time>2026-05-04T19:54:12.009Z</time></trkpt><trkpt lat="45.6589641" lon="10.2321565"><ele>433.0</ele><time>2026-05-04T19:54:12.947Z</time></trkpt><trkpt lat="45.6589573" lon="10.2320491"><ele>433.00000000000006</ele><time>2026-05-04T19:54:14.009Z</time></trkpt><trkpt lat="45.6589465" lon="10.231864"><ele>433.0</ele><time>2026-05-04T19:54:16.009Z</time></trkpt><trkpt lat="45.6589437" lon="10.2316947"><ele>432.0</ele><time>2026-05-04T19:54:17.951Z</time></trkpt><trkpt lat="45.6589438" lon="10.2316034"><ele>430.99999999999994</ele><time>2026-05-04T19:54:19.01Z</time></trkpt><trkpt lat="45.6589256" lon="10.2314378"><ele>429.99999999999994</ele><time>2026-05-04T19:54:21.009Z</time></trkpt><trkpt lat="45.658933" lon="10.2313014"><ele>429.0</ele><time>2026-05-04T19:54:23.009Z</time></trkpt><trkpt lat="45.6589398" lon="10.2311583"><ele>428.0</ele><time>2026-05-04T19:54:25.01Z</time></trkpt><trkpt lat="45.6589405" lon="10.2310473"><ele>427.49999999999994</ele><time>2026-05-04T19:54:27.01Z</time></trkpt><trkpt lat="45.6589207" lon="10.2309206"><ele>427.0</ele><time>2026-05-04T19:54:29.009Z</time></trkpt><trkpt lat="45.658888" lon="10.2308342"><ele>426.5</ele><time>2026-05-04T19:54:29.949Z</time></trkpt><trkpt lat="45.658838" lon="10.2307394"><ele>426.0</ele><time>2026-05-04T19:54:30.938Z</time></trkpt><trkpt lat="45.6587981" lon="10.2306559"><ele>425.49999999999994</ele><time>2026-05-04T19:54:32.009Z</time></trkpt><trkpt lat="45.6587431" lon="10.2305719"><ele>425.0</ele><time>2026-05-04T19:54:33.009Z</time></trkpt><trkpt lat="45.6586801" lon="10.2304828"><ele>422.66666666666663</ele><time>2026-05-04T19:54:34.009Z</time></trkpt><trkpt lat="45.6585797" lon="10.2304489"><ele>420.3333333333333</ele><time>2026-05-04T19:54:35.009Z</time></trkpt><trkpt lat="45.6584962" lon="10.2304259"><ele>418.0</ele><time>2026-05-04T19:54:36.009Z</time></trkpt><trkpt lat="45.6584107" lon="10.2304332"><ele>415.66666666666663</ele><time>2026-05-04T19:54:37.009Z</time></trkpt><trkpt lat="45.6583331" lon="10.2304748"><ele>413.3333333333333</ele><time>2026-05-04T19:54:37.941Z</time></trkpt><trkpt lat="45.6582854" lon="10.2305524"><ele>411.0</ele><time>2026-05-04T19:54:39.009Z</time></trkpt><trkpt lat="45.6582021" lon="10.2305884"><ele>410.4</ele><time>2026-05-04T19:54:39.944Z</time></trkpt><trkpt lat="45.6581409" lon="10.23065"><ele>409.8</ele><time>2026-05-04T19:54:40.943Z</time></trkpt><trkpt lat="45.6580738" lon="10.2307064"><ele>409.2</ele><time>2026-05-04T19:54:41.938Z</time></trkpt><trkpt lat="45.6579986" lon="10.2307765"><ele>408.59999999999997</ele><time>2026-05-04T19:54:43.009Z</time></trkpt><trkpt lat="45.6578569" lon="10.2308456"><ele>408.0</ele><time>2026-05-04T19:54:43.945Z</time></trkpt><trkpt lat="45.6577578" lon="10.2308934"><ele>407.2</ele><time>2026-05-04T19:54:45.009Z</time></trkpt><trkpt lat="45.6576694" lon="10.2309048"><ele>406.4</ele><time>2026-05-04T19:54:46.009Z</time></trkpt><trkpt lat="45.6575676" lon="10.2309448"><ele>405.59999999999997</ele><time>2026-05-04T19:54:47.009Z</time></trkpt><trkpt lat="45.6574553" lon="10.2309383"><ele>404.79999999999995</ele><time>2026-05-04T19:54:48.009Z</time></trkpt><trkpt lat="45.6573444" lon="10.2309225"><ele>404.0</ele><time>2026-05-04T19:54:49.009Z</time></trkpt><trkpt lat="45.6572304" lon="10.2309086"><ele>404.0</ele><time>2026-05-04T19:54:50.009Z</time></trkpt><trkpt lat="45.6571013" lon="10.2308589"><ele>404.0</ele><time>2026-05-04T19:54:51.009Z</time></trkpt><trkpt lat="45.6569553" lon="10.2308501"><ele>404.0</ele><time>2026-05-04T19:54:51.948Z</time></trkpt><trkpt lat="45.6569252" lon="10.2307521"><ele>404.0</ele><time>2026-05-04T19:54:53.009Z</time></trkpt><trkpt lat="45.656833" lon="10.2307201"><ele>404.0</ele><time>2026-05-04T19:54:54.009Z</time></trkpt><trkpt lat="45.6567405" lon="10.2306912"><ele>403.6</ele><time>2026-05-04T19:54:55.009Z</time></trkpt><trkpt lat="45.6566705" lon="10.2306786"><ele>403.2</ele><time>2026-05-04T19:54:56.01Z</time></trkpt><trkpt lat="45.6565976" lon="10.2306648"><ele>402.8</ele><time>2026-05-04T19:54:57.009Z</time></trkpt><trkpt lat="45.6567031" lon="10.2305738"><ele>402.40000000000003</ele><time>2026-05-04T19:54:58.01Z</time></trkpt><trkpt lat="45.6567635" lon="10.230446"><ele>402.0</ele><time>2026-05-04T19:55:00.009Z</time></trkpt><trkpt lat="45.6568295" lon="10.2303121"><ele>402.0</ele><time>2026-05-04T19:55:01.946Z</time></trkpt><trkpt lat="45.6568604" lon="10.230134"><ele>402.0</ele><time>2026-05-04T19:55:04.009Z</time></trkpt><trkpt lat="45.6568761" lon="10.2298895"><ele>402.0</ele><time>2026-05-04T19:55:06.009Z</time></trkpt><trkpt lat="45.6568765" lon="10.2297559"><ele>402.0</ele><time>2026-05-04T19:55:07.009Z</time></trkpt><trkpt lat="45.6568747" lon="10.2296058"><ele>401.6666666666667</ele><time>2026-05-04T19:55:08.009Z</time></trkpt><trkpt lat="45.6568699" lon="10.2294738"><ele>401.33333333333337</ele><time>2026-05-04T19:55:09.01Z</time></trkpt><trkpt lat="45.6568702" lon="10.2293315"><ele>401.0</ele><time>2026-05-04T19:55:10.009Z</time></trkpt><trkpt lat="45.6568746" lon="10.2291912"><ele>400.6666666666667</ele><time>2026-05-04T19:55:11.01Z</time></trkpt><trkpt lat="45.6569002" lon="10.2291031"><ele>400.33333333333337</ele><time>2026-05-04T19:55:12.009Z</time></trkpt><trkpt lat="45.6569188" lon="10.2289781"><ele>400.0</ele><time>2026-05-04T19:55:13.009Z</time></trkpt><trkpt lat="45.6569685" lon="10.2288539"><ele>395.25</ele><time>2026-05-04T19:55:14.009Z</time></trkpt><trkpt lat="45.657014" lon="10.2286658"><ele>390.5</ele><time>2026-05-04T19:55:15.009Z</time></trkpt><trkpt lat="45.6570931" lon="10.2287161"><ele>385.75</ele><time>2026-05-04T19:55:15.948Z</time></trkpt><trkpt lat="45.6571851" lon="10.2287653"><ele>381.0</ele><time>2026-05-04T19:55:17.009Z</time></trkpt><trkpt lat="45.6572947" lon="10.2289"><ele>385.25</ele><time>2026-05-04T19:55:18.009Z</time></trkpt><trkpt lat="45.6574277" lon="10.2289874"><ele>389.5</ele><time>2026-05-04T19:55:19.009Z</time></trkpt><trkpt lat="45.657539" lon="10.2290942"><ele>393.75</ele><time>2026-05-04T19:55:20.01Z</time></trkpt><trkpt lat="45.6576448" lon="10.2291312"><ele>398.0</ele><time>2026-05-04T19:55:21.009Z</time></trkpt><trkpt lat="45.6577412" lon="10.2291659"><ele>398.75</ele><time>2026-05-04T19:55:21.943Z</time></trkpt><trkpt lat="45.6578402" lon="10.2291255"><ele>399.5</ele><time>2026-05-04T19:55:23.009Z</time></trkpt><trkpt lat="45.6579216" lon="10.2289205"><ele>400.25</ele><time>2026-05-04T19:55:24.01Z</time></trkpt><trkpt lat="45.6580167" lon="10.2287798"><ele>401.0</ele><time>2026-05-04T19:55:25.009Z</time></trkpt><trkpt lat="45.6580883" lon="10.2286555"><ele>398.25</ele><time>2026-05-04T19:55:26.009Z</time></trkpt><trkpt lat="45.6581739" lon="10.2285471"><ele>395.5</ele><time>2026-05-04T19:55:26.946Z</time></trkpt><trkpt lat="45.6582592" lon="10.2284103"><ele>392.75</ele><time>2026-05-04T19:55:28.009Z</time></trkpt><trkpt lat="45.658345" lon="10.228335"><ele>390.0</ele><time>2026-05-04T19:55:29.009Z</time></trkpt><trkpt lat="45.6584227" lon="10.2282094"><ele>389.0</ele><time>2026-05-04T19:55:30.009Z</time></trkpt><trkpt lat="45.6584726" lon="10.2280937"><ele>388.0</ele><time>2026-05-04T19:55:31.009Z</time></trkpt><trkpt lat="45.6584594" lon="10.2279725"><ele>387.0</ele><time>2026-05-04T19:55:32.009Z</time></trkpt><trkpt lat="45.658452" lon="10.227813"><ele>386.0</ele><time>2026-05-04T19:55:33.009Z</time></trkpt><trkpt lat="45.6584151" lon="10.2276787"><ele>385.0</ele><time>2026-05-04T19:55:34.009Z</time></trkpt><trkpt lat="45.6583746" lon="10.2275141"><ele>385.0</ele><time>2026-05-04T19:55:35.009Z</time></trkpt><trkpt lat="45.6583304" lon="10.2273934"><ele>385.0</ele><time>2026-05-04T19:55:36.009Z</time></trkpt><trkpt lat="45.6582955" lon="10.227229"><ele>385.0</ele><time>2026-05-04T19:55:37.009Z</time></trkpt><trkpt lat="45.6582766" lon="10.227066"><ele>385.0</ele><time>2026-05-04T19:55:38.009Z</time></trkpt><trkpt lat="45.6582653" lon="10.2269293"><ele>385.0</ele><time>2026-05-04T19:55:39.009Z</time></trkpt><trkpt lat="45.6582639" lon="10.2267948"><ele>385.2</ele><time>2026-05-04T19:55:39.943Z</time></trkpt><trkpt lat="45.6583132" lon="10.2265888"><ele>385.4</ele><time>2026-05-04T19:55:42.009Z</time></trkpt><trkpt lat="45.6583532" lon="10.2264899"><ele>385.6</ele><time>2026-05-04T19:55:43.009Z</time></trkpt><trkpt lat="45.658387" lon="10.2263887"><ele>385.8</ele><time>2026-05-04T19:55:44.009Z</time></trkpt><trkpt lat="45.6584332" lon="10.2262748"><ele>386.0</ele><time>2026-05-04T19:55:45.01Z</time></trkpt><trkpt lat="45.65848" lon="10.2261107"><ele>386.0</ele><time>2026-05-04T19:55:46.009Z</time></trkpt><trkpt lat="45.6585436" lon="10.2260194"><ele>386.0</ele><time>2026-05-04T19:55:47.009Z</time></trkpt><trkpt lat="45.6585968" lon="10.2258812"><ele>386.0</ele><time>2026-05-04T19:55:48.009Z</time></trkpt><trkpt lat="45.6586444" lon="10.2257202"><ele>386.0</ele><time>2026-05-04T19:55:49.009Z</time></trkpt><trkpt lat="45.6586984" lon="10.2255573"><ele>386.0</ele><time>2026-05-04T19:55:50.009Z</time></trkpt><trkpt lat="45.6587573" lon="10.2254396"><ele>387.4</ele><time>2026-05-04T19:55:51.009Z</time></trkpt><trkpt lat="45.6588183" lon="10.225295"><ele>388.8</ele><time>2026-05-04T19:55:52.009Z</time></trkpt><trkpt lat="45.6588799" lon="10.2251644"><ele>390.2</ele><time>2026-05-04T19:55:53.009Z</time></trkpt><trkpt lat="45.6589451" lon="10.2250427"><ele>391.59999999999997</ele><time>2026-05-04T19:55:54.009Z</time></trkpt><trkpt lat="45.6590243" lon="10.2249864"><ele>393.0</ele><time>2026-05-04T19:55:54.946Z</time></trkpt><trkpt lat="45.6590842" lon="10.2248267"><ele>392.8333333333333</ele><time>2026-05-04T19:55:56.009Z</time></trkpt><trkpt lat="45.6591523" lon="10.2247566"><ele>392.66666666666663</ele><time>2026-05-04T19:55:57.01Z</time></trkpt><trkpt lat="45.6592123" lon="10.2246813"><ele>392.5</ele><time>2026-05-04T19:55:58.009Z</time></trkpt><trkpt lat="45.6592658" lon="10.2246158"><ele>392.3333333333333</ele><time>2026-05-04T19:55:59.009Z</time></trkpt><trkpt lat="45.6593619" lon="10.2245372"><ele>392.16666666666663</ele><time>2026-05-04T19:56:01.005Z</time></trkpt><trkpt lat="45.6594175" lon="10.2244253"><ele>392.0</ele><time>2026-05-04T19:56:03.009Z</time></trkpt><trkpt lat="45.6595125" lon="10.2243951"><ele>394.0</ele><time>2026-05-04T19:57:09.008Z</time></trkpt><trkpt lat="45.6595825" lon="10.2243675"><ele>396.0</ele><time>2026-05-04T19:57:11.008Z</time></trkpt><trkpt lat="45.6596583" lon="10.2243086"><ele>398.0</ele><time>2026-05-04T19:57:13.008Z</time></trkpt><trkpt lat="45.6597319" lon="10.224275"><ele>400.0</ele><time>2026-05-04T19:57:15.008Z</time></trkpt><trkpt lat="45.6598478" lon="10.224326"><ele>402.0</ele><time>2026-05-04T19:57:15.978Z</time></trkpt><trkpt lat="45.6600247" lon="10.2243181"><ele>402.0</ele><time>2026-05-04T19:57:17.947Z</time></trkpt><trkpt lat="45.6600883" lon="10.2243403"><ele>402.0</ele><time>2026-05-04T19:57:20.008Z</time></trkpt><trkpt lat="45.6602105" lon="10.2243462"><ele>402.0</ele><time>2026-05-04T19:57:22.008Z</time></trkpt><trkpt lat="45.6602779" lon="10.2243623"><ele>402.0</ele><time>2026-05-04T19:57:23.009Z</time></trkpt><trkpt lat="45.6603575" lon="10.2243441"><ele>402.0</ele><time>2026-05-04T19:57:24.008Z</time></trkpt><trkpt lat="45.6604201" lon="10.2243041"><ele>402.0</ele><time>2026-05-04T19:57:25.008Z</time></trkpt><trkpt lat="45.6604862" lon="10.2242601"><ele>403.8333333333333</ele><time>2026-05-04T19:57:26.008Z</time></trkpt><trkpt lat="45.6605305" lon="10.2241705"><ele>405.66666666666663</ele><time>2026-05-04T19:57:27.009Z</time></trkpt><trkpt lat="45.6606019" lon="10.2240334"><ele>407.5</ele><time>2026-05-04T19:57:28.008Z</time></trkpt><trkpt lat="45.6606694" lon="10.2239062"><ele>409.3333333333333</ele><time>2026-05-04T19:57:30.008Z</time></trkpt><trkpt lat="45.6607178" lon="10.2238395"><ele>411.16666666666663</ele><time>2026-05-04T19:57:31.008Z</time></trkpt><trkpt lat="45.6607357" lon="10.2237462"><ele>413.0</ele><time>2026-05-04T19:57:32.008Z</time></trkpt><trkpt lat="45.6607572" lon="10.2235826"><ele>413.0</ele><time>2026-05-04T19:57:34.008Z</time></trkpt><trkpt lat="45.6607761" lon="10.2234902"><ele>413.0</ele><time>2026-05-04T19:57:35.008Z</time></trkpt><trkpt lat="45.6609422" lon="10.2233787"><ele>413.0</ele><time>2026-05-04T19:57:37.008Z</time></trkpt><trkpt lat="45.6610224" lon="10.2233235"><ele>413.0</ele><time>2026-05-04T19:57:38.008Z</time></trkpt><trkpt lat="45.6611024" lon="10.2232524"><ele>413.0</ele><time>2026-05-04T19:57:39.008Z</time></trkpt><trkpt lat="45.661179" lon="10.2231708"><ele>412.59999999999997</ele><time>2026-05-04T19:57:40.008Z</time></trkpt><trkpt lat="45.6612633" lon="10.2230906"><ele>412.2</ele><time>2026-05-04T19:57:40.948Z</time></trkpt><trkpt lat="45.6613463" lon="10.2230172"><ele>411.8</ele><time>2026-05-04T19:57:42.008Z</time></trkpt><trkpt lat="45.6614296" lon="10.2229181"><ele>411.4</ele><time>2026-05-04T19:57:43.008Z</time></trkpt><trkpt lat="45.6615127" lon="10.2228196"><ele>411.0</ele><time>2026-05-04T19:57:44.008Z</time></trkpt><trkpt lat="45.6615877" lon="10.2227231"><ele>411.0</ele><time>2026-05-04T19:57:45.008Z</time></trkpt><trkpt lat="45.6616608" lon="10.2226345"><ele>411.0</ele><time>2026-05-04T19:57:46.008Z</time></trkpt><trkpt lat="45.6617509" lon="10.2225444"><ele>411.0</ele><time>2026-05-04T19:57:47.008Z</time></trkpt><trkpt lat="45.6618278" lon="10.2224403"><ele>411.0</ele><time>2026-05-04T19:57:48.008Z</time></trkpt><trkpt lat="45.6619155" lon="10.2223618"><ele>411.0</ele><time>2026-05-04T19:57:48.941Z</time></trkpt><trkpt lat="45.6619901" lon="10.2222397"><ele>409.0</ele><time>2026-05-04T19:57:50.008Z</time></trkpt><trkpt lat="45.6620516" lon="10.2221271"><ele>407.0</ele><time>2026-05-04T19:57:51.008Z</time></trkpt><trkpt lat="45.6621072" lon="10.2220058"><ele>405.0</ele><time>2026-05-04T19:57:52.008Z</time></trkpt><trkpt lat="45.6621668" lon="10.2219059"><ele>403.0</ele><time>2026-05-04T19:57:53.008Z</time></trkpt><trkpt lat="45.6622025" lon="10.2217838"><ele>401.0</ele><time>2026-05-04T19:57:54.009Z</time></trkpt><trkpt lat="45.6622487" lon="10.2216618"><ele>401.0</ele><time>2026-05-04T19:57:55.009Z</time></trkpt><trkpt lat="45.6623213" lon="10.2215603"><ele>401.0</ele><time>2026-05-04T19:57:56.008Z</time></trkpt><trkpt lat="45.6624095" lon="10.2214675"><ele>401.0</ele><time>2026-05-04T19:57:57.008Z</time></trkpt><trkpt lat="45.6625081" lon="10.2214178"><ele>401.0</ele><time>2026-05-04T19:57:58.008Z</time></trkpt><trkpt lat="45.6625983" lon="10.2214023"><ele>401.0</ele><time>2026-05-04T19:57:59.008Z</time></trkpt><trkpt lat="45.6627038" lon="10.2213844"><ele>398.0</ele><time>2026-05-04T19:58:00.008Z</time></trkpt><trkpt lat="45.6628106" lon="10.2213729"><ele>395.0</ele><time>2026-05-04T19:58:00.953Z</time></trkpt><trkpt lat="45.6629195" lon="10.2213552"><ele>392.0</ele><time>2026-05-04T19:58:02.008Z</time></trkpt><trkpt lat="45.6630214" lon="10.2213332"><ele>389.0</ele><time>2026-05-04T19:58:02.952Z</time></trkpt><trkpt lat="45.6631137" lon="10.2212836"><ele>386.0</ele><time>2026-05-04T19:58:03.947Z</time></trkpt><trkpt lat="45.6632261" lon="10.2212473"><ele>386.0</ele><time>2026-05-04T19:58:05.008Z</time></trkpt><trkpt lat="45.6633217" lon="10.2211245"><ele>386.0</ele><time>2026-05-04T19:58:06.008Z</time></trkpt><trkpt lat="45.6634265" lon="10.2210376"><ele>386.0</ele><time>2026-05-04T19:58:07.008Z</time></trkpt><trkpt lat="45.6635184" lon="10.2209401"><ele>386.0</ele><time>2026-05-04T19:58:08.008Z</time></trkpt><trkpt lat="45.6636125" lon="10.2208542"><ele>387.20000000000005</ele><time>2026-05-04T19:58:09.008Z</time></trkpt><trkpt lat="45.6637044" lon="10.2207627"><ele>388.40000000000003</ele><time>2026-05-04T19:58:10.008Z</time></trkpt><trkpt lat="45.6637957" lon="10.2206844"><ele>389.6</ele><time>2026-05-04T19:58:11.008Z</time></trkpt><trkpt lat="45.6638859" lon="10.2205965"><ele>390.8</ele><time>2026-05-04T19:58:12.008Z</time></trkpt><trkpt lat="45.6639685" lon="10.2205136"><ele>392.0</ele><time>2026-05-04T19:58:12.946Z</time></trkpt><trkpt lat="45.6640521" lon="10.2204437"><ele>390.20000000000005</ele><time>2026-05-04T19:58:13.95Z</time></trkpt><trkpt lat="45.664144" lon="10.2203663"><ele>388.4</ele><time>2026-05-04T19:58:15.008Z</time></trkpt><trkpt lat="45.6642208" lon="10.2203521"><ele>386.6</ele><time>2026-05-04T19:58:16.008Z</time></trkpt><trkpt lat="45.6643237" lon="10.220288"><ele>384.79999999999995</ele><time>2026-05-04T19:58:17.008Z</time></trkpt><trkpt lat="45.6644372" lon="10.2202497"><ele>383.0</ele><time>2026-05-04T19:58:18.008Z</time></trkpt><trkpt lat="45.664524" lon="10.2201752"><ele>383.0</ele><time>2026-05-04T19:58:19.009Z</time></trkpt><trkpt lat="45.6646005" lon="10.2201332"><ele>383.0</ele><time>2026-05-04T19:58:20.009Z</time></trkpt><trkpt lat="45.6646929" lon="10.2201096"><ele>383.0</ele><time>2026-05-04T19:58:21.008Z</time></trkpt><trkpt lat="45.6647767" lon="10.220089"><ele>383.0</ele><time>2026-05-04T19:58:22.008Z</time></trkpt><trkpt lat="45.6648593" lon="10.2200048"><ele>383.0</ele><time>2026-05-04T19:58:23.008Z</time></trkpt><trkpt lat="45.6648875" lon="10.2198801"><ele>383.0</ele><time>2026-05-04T19:58:23.949Z</time></trkpt><trkpt lat="45.6648873" lon="10.219773"><ele>383.0</ele><time>2026-05-04T19:58:25.008Z</time></trkpt><trkpt lat="45.6648919" lon="10.2196725"><ele>383.0</ele><time>2026-05-04T19:58:26.008Z</time></trkpt><trkpt lat="45.6648508" lon="10.2195638"><ele>383.0</ele><time>2026-05-04T19:58:27.008Z</time></trkpt><trkpt lat="45.6648228" lon="10.2194474"><ele>383.0</ele><time>2026-05-04T19:58:28.008Z</time></trkpt><trkpt lat="45.6647778" lon="10.219349"><ele>383.0</ele><time>2026-05-04T19:58:29.009Z</time></trkpt><trkpt lat="45.6647233" lon="10.219243"><ele>383.0</ele><time>2026-05-04T19:58:30.008Z</time></trkpt><trkpt lat="45.6646543" lon="10.219148"><ele>383.0</ele><time>2026-05-04T19:58:31.008Z</time></trkpt><trkpt lat="45.66459" lon="10.2190498"><ele>383.0</ele><time>2026-05-04T19:58:31.982Z</time></trkpt><trkpt lat="45.6645159" lon="10.2189412"><ele>383.0</ele><time>2026-05-04T19:58:33.008Z</time></trkpt><trkpt lat="45.6644058" lon="10.218866"><ele>383.0</ele><time>2026-05-04T19:58:33.943Z</time></trkpt><trkpt lat="45.664314" lon="10.218766"><ele>381.4</ele><time>2026-05-04T19:58:34.943Z</time></trkpt><trkpt lat="45.6642379" lon="10.2186722"><ele>379.79999999999995</ele><time>2026-05-04T19:58:36.008Z</time></trkpt><trkpt lat="45.6641588" lon="10.2185784"><ele>378.2</ele><time>2026-05-04T19:58:37.008Z</time></trkpt><trkpt lat="45.6640825" lon="10.2184828"><ele>376.6</ele><time>2026-05-04T19:58:38.008Z</time></trkpt><trkpt lat="45.6640065" lon="10.2183816"><ele>375.0</ele><time>2026-05-04T19:58:39.008Z</time></trkpt><trkpt lat="45.6639198" lon="10.2182769"><ele>375.0</ele><time>2026-05-04T19:58:40.008Z</time></trkpt><trkpt lat="45.6638367" lon="10.2181653"><ele>375.0</ele><time>2026-05-04T19:58:41.008Z</time></trkpt><trkpt lat="45.663759" lon="10.2180865"><ele>375.0</ele><time>2026-05-04T19:58:42.008Z</time></trkpt><trkpt lat="45.6636746" lon="10.2180001"><ele>375.0</ele><time>2026-05-04T19:58:43.008Z</time></trkpt><trkpt lat="45.6635989" lon="10.2179361"><ele>375.0</ele><time>2026-05-04T19:58:44.008Z</time></trkpt><trkpt lat="45.6635357" lon="10.2178593"><ele>373.2</ele><time>2026-05-04T19:58:45.008Z</time></trkpt><trkpt lat="45.6634781" lon="10.217807"><ele>371.4</ele><time>2026-05-04T19:58:45.951Z</time></trkpt><trkpt lat="45.6634114" lon="10.2177405"><ele>369.6</ele><time>2026-05-04T19:58:47.008Z</time></trkpt><trkpt lat="45.6632817" lon="10.2176011"><ele>367.8</ele><time>2026-05-04T19:58:49.008Z</time></trkpt><trkpt lat="45.663215" lon="10.2175125"><ele>366.0</ele><time>2026-05-04T19:58:50.008Z</time></trkpt><trkpt lat="45.6631381" lon="10.2174296"><ele>366.0</ele><time>2026-05-04T19:58:51.008Z</time></trkpt><trkpt lat="45.6630717" lon="10.2173729"><ele>366.0</ele><time>2026-05-04T19:58:52.008Z</time></trkpt><trkpt lat="45.6629912" lon="10.2172966"><ele>366.0</ele><time>2026-05-04T19:58:53.008Z</time></trkpt><trkpt lat="45.6628967" lon="10.217229"><ele>366.0</ele><time>2026-05-04T19:58:54.008Z</time></trkpt><trkpt lat="45.6628087" lon="10.2171644"><ele>366.0</ele><time>2026-05-04T19:58:55.008Z</time></trkpt><trkpt lat="45.6627208" lon="10.2171232"><ele>363.4</ele><time>2026-05-04T19:58:56.009Z</time></trkpt><trkpt lat="45.6626288" lon="10.2170633"><ele>360.8</ele><time>2026-05-04T19:58:57.008Z</time></trkpt><trkpt lat="45.6625368" lon="10.2170052"><ele>358.2</ele><time>2026-05-04T19:58:58.008Z</time></trkpt><trkpt lat="45.662433" lon="10.2169159"><ele>355.59999999999997</ele><time>2026-05-04T19:58:59.008Z</time></trkpt><trkpt lat="45.6623524" lon="10.2168169"><ele>353.0</ele><time>2026-05-04T19:58:59.956Z</time></trkpt><trkpt lat="45.6622812" lon="10.2167155"><ele>353.0</ele><time>2026-05-04T19:59:00.952Z</time></trkpt><trkpt lat="45.6622417" lon="10.2166107"><ele>353.0</ele><time>2026-05-04T19:59:01.953Z</time></trkpt><trkpt lat="45.6621872" lon="10.2164959"><ele>353.0</ele><time>2026-05-04T19:59:02.943Z</time></trkpt><trkpt lat="45.6621493" lon="10.2163818"><ele>353.0</ele><time>2026-05-04T19:59:03.945Z</time></trkpt><trkpt lat="45.6621128" lon="10.2162623"><ele>353.0</ele><time>2026-05-04T19:59:04.939Z</time></trkpt><trkpt lat="45.6620789" lon="10.2161485"><ele>353.0</ele><time>2026-05-04T19:59:06.008Z</time></trkpt><trkpt lat="45.662034" lon="10.2160298"><ele>354.2</ele><time>2026-05-04T19:59:07.008Z</time></trkpt><trkpt lat="45.6619684" lon="10.2159229"><ele>355.4</ele><time>2026-05-04T19:59:08.008Z</time></trkpt><trkpt lat="45.661911" lon="10.2158065"><ele>356.59999999999997</ele><time>2026-05-04T19:59:09.008Z</time></trkpt><trkpt lat="45.6618433" lon="10.2156948"><ele>357.79999999999995</ele><time>2026-05-04T19:59:10.008Z</time></trkpt><trkpt lat="45.6617812" lon="10.2155845"><ele>359.0</ele><time>2026-05-04T19:59:11.008Z</time></trkpt><trkpt lat="45.6617006" lon="10.2154569"><ele>357.0</ele><time>2026-05-04T19:59:12.009Z</time></trkpt><trkpt lat="45.6616448" lon="10.2153639"><ele>355.0</ele><time>2026-05-04T19:59:13.008Z</time></trkpt><trkpt lat="45.6615917" lon="10.2152907"><ele>353.0</ele><time>2026-05-04T19:59:14.008Z</time></trkpt><trkpt lat="45.6615346" lon="10.2151932"><ele>351.0</ele><time>2026-05-04T19:59:15.008Z</time></trkpt><trkpt lat="45.6614918" lon="10.2151086"><ele>349.0</ele><time>2026-05-04T19:59:15.944Z</time></trkpt><trkpt lat="45.6614368" lon="10.2150295"><ele>347.0</ele><time>2026-05-04T19:59:16.944Z</time></trkpt><trkpt lat="45.6613766" lon="10.2149173"><ele>348.25</ele><time>2026-05-04T19:59:18.009Z</time></trkpt><trkpt lat="45.6613191" lon="10.2148075"><ele>349.5</ele><time>2026-05-04T19:59:19.009Z</time></trkpt><trkpt lat="45.6612644" lon="10.2147321"><ele>350.75</ele><time>2026-05-04T19:59:19.947Z</time></trkpt><trkpt lat="45.6611389" lon="10.2144971"><ele>352.0</ele><time>2026-05-04T19:59:22.008Z</time></trkpt><trkpt lat="45.6610931" lon="10.2144091"><ele>348.0</ele><time>2026-05-04T19:59:23.008Z</time></trkpt><trkpt lat="45.661023" lon="10.2142995"><ele>344.0</ele><time>2026-05-04T19:59:24.008Z</time></trkpt><trkpt lat="45.6609592" lon="10.2141857"><ele>340.0</ele><time>2026-05-04T19:59:25.008Z</time></trkpt><trkpt lat="45.660903" lon="10.2140927"><ele>336.0</ele><time>2026-05-04T19:59:26.008Z</time></trkpt><trkpt lat="45.6608426" lon="10.2139759"><ele>332.0</ele><time>2026-05-04T19:59:27.008Z</time></trkpt><trkpt lat="45.6607913" lon="10.2138892"><ele>331.8</ele><time>2026-05-04T19:59:28.008Z</time></trkpt><trkpt lat="45.6607386" lon="10.2137729"><ele>331.6</ele><time>2026-05-04T19:59:29.008Z</time></trkpt><trkpt lat="45.6606907" lon="10.213651"><ele>331.40000000000003</ele><time>2026-05-04T19:59:30.008Z</time></trkpt><trkpt lat="45.6606238" lon="10.2135173"><ele>331.20000000000005</ele><time>2026-05-04T19:59:31.008Z</time></trkpt><trkpt lat="45.6605686" lon="10.2133642"><ele>331.0</ele><time>2026-05-04T19:59:32.008Z</time></trkpt><trkpt lat="45.6605269" lon="10.2132047"><ele>331.5</ele><time>2026-05-04T19:59:33.008Z</time></trkpt><trkpt lat="45.6604826" lon="10.213052"><ele>332.0</ele><time>2026-05-04T19:59:34.008Z</time></trkpt><trkpt lat="45.6604317" lon="10.2128753"><ele>332.5</ele><time>2026-05-04T19:59:35.008Z</time></trkpt><trkpt lat="45.6603783" lon="10.2126905"><ele>333.0</ele><time>2026-05-04T19:59:36.008Z</time></trkpt><trkpt lat="45.6603351" lon="10.2124984"><ele>335.0</ele><time>2026-05-04T19:59:37.008Z</time></trkpt><trkpt lat="45.6602868" lon="10.2123008"><ele>337.0</ele><time>2026-05-04T19:59:38.008Z</time></trkpt><trkpt lat="45.6602221" lon="10.2120963"><ele>339.0</ele><time>2026-05-04T19:59:39.008Z</time></trkpt><trkpt lat="45.6601674" lon="10.2118835"><ele>334.6666666666667</ele><time>2026-05-04T19:59:40.008Z</time></trkpt><trkpt lat="45.6600977" lon="10.2116804"><ele>330.33333333333337</ele><time>2026-05-04T19:59:41.008Z</time></trkpt><trkpt lat="45.660013" lon="10.2114867"><ele>326.0</ele><time>2026-05-04T19:59:42.009Z</time></trkpt><trkpt lat="45.6599334" lon="10.2112885"><ele>325.0</ele><time>2026-05-04T19:59:42.947Z</time></trkpt><trkpt lat="45.6598488" lon="10.2111312"><ele>324.0</ele><time>2026-05-04T19:59:44.008Z</time></trkpt><trkpt lat="45.6597603" lon="10.2109756"><ele>323.0</ele><time>2026-05-04T19:59:45.008Z</time></trkpt><trkpt lat="45.6596841" lon="10.2108527"><ele>322.0</ele><time>2026-05-04T19:59:46.008Z</time></trkpt><trkpt lat="45.6596054" lon="10.2107044"><ele>319.66666666666663</ele><time>2026-05-04T19:59:47.008Z</time></trkpt><trkpt lat="45.6595323" lon="10.2105756"><ele>317.3333333333333</ele><time>2026-05-04T19:59:48.008Z</time></trkpt><trkpt lat="45.6593872" lon="10.2102975"><ele>315.0</ele><time>2026-05-04T19:59:49.949Z</time></trkpt><trkpt lat="45.6593157" lon="10.2101622"><ele>315.0</ele><time>2026-05-04T19:59:50.94Z</time></trkpt><trkpt lat="45.6592589" lon="10.2100511"><ele>315.0</ele><time>2026-05-04T19:59:51.95Z</time></trkpt><trkpt lat="45.6591832" lon="10.2099498"><ele>315.0</ele><time>2026-05-04T19:59:52.996Z</time></trkpt><trkpt lat="45.6591127" lon="10.2098465"><ele>315.0</ele><time>2026-05-04T19:59:54.008Z</time></trkpt><trkpt lat="45.6590314" lon="10.2097453"><ele>315.0</ele><time>2026-05-04T19:59:54.953Z</time></trkpt><trkpt lat="45.6589499" lon="10.2096455"><ele>314.0</ele><time>2026-05-04T19:59:56.008Z</time></trkpt><trkpt lat="45.6588616" lon="10.2096038"><ele>313.0</ele><time>2026-05-04T19:59:57.008Z</time></trkpt><trkpt lat="45.6587428" lon="10.2094986"><ele>312.0</ele><time>2026-05-04T19:59:58.008Z</time></trkpt><trkpt lat="45.6586565" lon="10.2094001"><ele>311.0</ele><time>2026-05-04T19:59:58.949Z</time></trkpt><trkpt lat="45.6585531" lon="10.2092922"><ele>311.0</ele><time>2026-05-04T19:59:59.943Z</time></trkpt><trkpt lat="45.6584643" lon="10.2091968"><ele>311.0</ele><time>2026-05-04T20:00:00.934Z</time></trkpt><trkpt lat="45.6583713" lon="10.2091126"><ele>311.0</ele><time>2026-05-04T20:00:01.943Z</time></trkpt><trkpt lat="45.6582806" lon="10.2090261"><ele>311.0</ele><time>2026-05-04T20:00:02.935Z</time></trkpt><trkpt lat="45.6582434" lon="10.2088939"><ele>311.0</ele><time>2026-05-04T20:00:03.999Z</time></trkpt><trkpt lat="45.6581837" lon="10.2087724"><ele>311.75</ele><time>2026-05-04T20:00:04.947Z</time></trkpt><trkpt lat="45.6581023" lon="10.2086347"><ele>312.5</ele><time>2026-05-04T20:00:06.008Z</time></trkpt><trkpt lat="45.6580334" lon="10.2084817"><ele>313.25</ele><time>2026-05-04T20:00:07.008Z</time></trkpt><trkpt lat="45.6579757" lon="10.2083305"><ele>314.0</ele><time>2026-05-04T20:00:07.948Z</time></trkpt><trkpt lat="45.6579162" lon="10.2081541"><ele>311.75</ele><time>2026-05-04T20:00:08.949Z</time></trkpt><trkpt lat="45.657873" lon="10.2079953"><ele>309.5</ele><time>2026-05-04T20:00:09.947Z</time></trkpt><trkpt lat="45.657803" lon="10.2078119"><ele>307.25</ele><time>2026-05-04T20:00:10.945Z</time></trkpt><trkpt lat="45.6577157" lon="10.2076376"><ele>305.0</ele><time>2026-05-04T20:00:11.948Z</time></trkpt><trkpt lat="45.6576143" lon="10.2074803"><ele>306.5</ele><time>2026-05-04T20:00:12.949Z</time></trkpt><trkpt lat="45.657507" lon="10.2073185"><ele>308.0</ele><time>2026-05-04T20:00:13.953Z</time></trkpt><trkpt lat="45.6574252" lon="10.2072376"><ele>309.5</ele><time>2026-05-04T20:00:14.946Z</time></trkpt><trkpt lat="45.6573023" lon="10.2070632"><ele>311.0</ele><time>2026-05-04T20:00:15.947Z</time></trkpt><trkpt lat="45.6571678" lon="10.2069115"><ele>311.0</ele><time>2026-05-04T20:00:16.946Z</time></trkpt><trkpt lat="45.6570422" lon="10.2067702"><ele>311.0</ele><time>2026-05-04T20:00:18.008Z</time></trkpt><trkpt lat="45.6569068" lon="10.2066364"><ele>311.0</ele><time>2026-05-04T20:00:18.962Z</time></trkpt><trkpt lat="45.6567787" lon="10.2064999"><ele>309.25</ele><time>2026-05-04T20:00:19.941Z</time></trkpt><trkpt lat="45.6566815" lon="10.206404"><ele>307.5</ele><time>2026-05-04T20:00:20.942Z</time></trkpt><trkpt lat="45.6565856" lon="10.2063189"><ele>305.75</ele><time>2026-05-04T20:00:21.938Z</time></trkpt><trkpt lat="45.6564914" lon="10.2062456"><ele>304.0</ele><time>2026-05-04T20:00:22.948Z</time></trkpt><trkpt lat="45.656383" lon="10.2061748"><ele>304.0</ele><time>2026-05-04T20:00:23.947Z</time></trkpt><trkpt lat="45.6562978" lon="10.2061095"><ele>304.0</ele><time>2026-05-04T20:00:24.948Z</time></trkpt><trkpt lat="45.656197" lon="10.2060456"><ele>304.0</ele><time>2026-05-04T20:00:25.954Z</time></trkpt><trkpt lat="45.6560915" lon="10.2059581"><ele>304.0</ele><time>2026-05-04T20:00:26.945Z</time></trkpt><trkpt lat="45.6559899" lon="10.2058562"><ele>302.0</ele><time>2026-05-04T20:00:27.947Z</time></trkpt><trkpt lat="45.6559017" lon="10.2056892"><ele>300.0</ele><time>2026-05-04T20:00:28.954Z</time></trkpt><trkpt lat="45.6558296" lon="10.2055527"><ele>298.0</ele><time>2026-05-04T20:00:29.946Z</time></trkpt><trkpt lat="45.6557573" lon="10.2053751"><ele>296.0</ele><time>2026-05-04T20:00:30.948Z</time></trkpt><trkpt lat="45.6557019" lon="10.205203"><ele>296.0</ele><time>2026-05-04T20:00:31.95Z</time></trkpt><trkpt lat="45.6556355" lon="10.205037"><ele>296.0</ele><time>2026-05-04T20:00:32.947Z</time></trkpt><trkpt lat="45.655567" lon="10.204876"><ele>296.0</ele><time>2026-05-04T20:00:33.938Z</time></trkpt><trkpt lat="45.6555288" lon="10.2047644"><ele>296.0</ele><time>2026-05-04T20:00:34.949Z</time></trkpt><trkpt lat="45.6554718" lon="10.2046207"><ele>297.2</ele><time>2026-05-04T20:00:36.008Z</time></trkpt><trkpt lat="45.6554736" lon="10.2044934"><ele>298.40000000000003</ele><time>2026-05-04T20:00:37.008Z</time></trkpt><trkpt lat="45.6554337" lon="10.2043495"><ele>299.6</ele><time>2026-05-04T20:00:38.008Z</time></trkpt><trkpt lat="45.6554037" lon="10.2042223"><ele>300.8</ele><time>2026-05-04T20:00:39.008Z</time></trkpt><trkpt lat="45.655392" lon="10.2040255"><ele>302.0</ele><time>2026-05-04T20:00:40.004Z</time></trkpt><trkpt lat="45.6553758" lon="10.2038548"><ele>302.4</ele><time>2026-05-04T20:00:41.008Z</time></trkpt><trkpt lat="45.6553461" lon="10.2037189"><ele>302.79999999999995</ele><time>2026-05-04T20:00:41.945Z</time></trkpt><trkpt lat="45.6553253" lon="10.2035558"><ele>303.2</ele><time>2026-05-04T20:00:42.939Z</time></trkpt><trkpt lat="45.6552825" lon="10.2034174"><ele>303.59999999999997</ele><time>2026-05-04T20:00:44.008Z</time></trkpt><trkpt lat="45.6552565" lon="10.2032595"><ele>304.0</ele><time>2026-05-04T20:00:44.938Z</time></trkpt><trkpt lat="45.6551961" lon="10.2030788"><ele>301.3333333333333</ele><time>2026-05-04T20:00:47.937Z</time></trkpt><trkpt lat="45.6551552" lon="10.2029736"><ele>298.66666666666663</ele><time>2026-05-04T20:00:49.008Z</time></trkpt><trkpt lat="45.6551981" lon="10.2028913"><ele>296.0</ele><time>2026-05-04T20:00:49.947Z</time></trkpt><trkpt lat="45.6552307" lon="10.2027984"><ele>293.3333333333333</ele><time>2026-05-04T20:00:51.008Z</time></trkpt><trkpt lat="45.6552645" lon="10.2026924"><ele>290.6666666666667</ele><time>2026-05-04T20:00:51.948Z</time></trkpt><trkpt lat="45.6553222" lon="10.2026128"><ele>288.0</ele><time>2026-05-04T20:00:52.948Z</time></trkpt><trkpt lat="45.6553737" lon="10.2025324"><ele>288.0</ele><time>2026-05-04T20:00:53.969Z</time></trkpt><trkpt lat="45.6554796" lon="10.2024383"><ele>288.0</ele><time>2026-05-04T20:00:55.008Z</time></trkpt><trkpt lat="45.6555835" lon="10.2023268"><ele>288.0</ele><time>2026-05-04T20:00:56.008Z</time></trkpt><trkpt lat="45.6556815" lon="10.2022212"><ele>288.0</ele><time>2026-05-04T20:00:56.947Z</time></trkpt><trkpt lat="45.6557831" lon="10.2021624"><ele>286.8</ele><time>2026-05-04T20:00:57.95Z</time></trkpt><trkpt lat="45.6558905" lon="10.2020797"><ele>285.6</ele><time>2026-05-04T20:00:58.947Z</time></trkpt><trkpt lat="45.6559864" lon="10.2020255"><ele>284.4</ele><time>2026-05-04T20:00:59.941Z</time></trkpt><trkpt lat="45.656079" lon="10.2019566"><ele>283.2</ele><time>2026-05-04T20:01:00.943Z</time></trkpt><trkpt lat="45.6561663" lon="10.2018916"><ele>282.0</ele><time>2026-05-04T20:01:01.942Z</time></trkpt><trkpt lat="45.6562577" lon="10.2018049"><ele>282.0</ele><time>2026-05-04T20:01:02.948Z</time></trkpt><trkpt lat="45.6563713" lon="10.2017425"><ele>282.0</ele><time>2026-05-04T20:01:03.949Z</time></trkpt><trkpt lat="45.6563982" lon="10.2016087"><ele>282.0</ele><time>2026-05-04T20:01:04.948Z</time></trkpt><trkpt lat="45.6564721" lon="10.2014934"><ele>282.0</ele><time>2026-05-04T20:01:05.947Z</time></trkpt><trkpt lat="45.6565617" lon="10.2013875"><ele>282.0</ele><time>2026-05-04T20:01:06.948Z</time></trkpt><trkpt lat="45.6566512" lon="10.2012782"><ele>282.2</ele><time>2026-05-04T20:01:07.948Z</time></trkpt><trkpt lat="45.6567226" lon="10.2011844"><ele>282.4</ele><time>2026-05-04T20:01:08.953Z</time></trkpt><trkpt lat="45.6567823" lon="10.2011097"><ele>282.6</ele><time>2026-05-04T20:01:09.951Z</time></trkpt><trkpt lat="45.6568612" lon="10.2010409"><ele>282.8</ele><time>2026-05-04T20:01:10.947Z</time></trkpt><trkpt lat="45.6569313" lon="10.2009928"><ele>283.0</ele><time>2026-05-04T20:01:11.949Z</time></trkpt><trkpt lat="45.6570048" lon="10.2008873"><ele>283.0</ele><time>2026-05-04T20:01:12.949Z</time></trkpt><trkpt lat="45.6570895" lon="10.2008016"><ele>283.0</ele><time>2026-05-04T20:01:13.951Z</time></trkpt><trkpt lat="45.6571646" lon="10.2007104"><ele>283.0</ele><time>2026-05-04T20:01:14.948Z</time></trkpt><trkpt lat="45.6572462" lon="10.2006125"><ele>283.0</ele><time>2026-05-04T20:01:15.952Z</time></trkpt><trkpt lat="45.6573309" lon="10.2005239"><ele>283.0</ele><time>2026-05-04T20:01:16.948Z</time></trkpt><trkpt lat="45.6574229" lon="10.2004053"><ele>282.0</ele><time>2026-05-04T20:01:18.008Z</time></trkpt><trkpt lat="45.65752" lon="10.2003974"><ele>281.0</ele><time>2026-05-04T20:01:19.009Z</time></trkpt><trkpt lat="45.6576062" lon="10.2003341"><ele>280.0</ele><time>2026-05-04T20:01:19.981Z</time></trkpt><trkpt lat="45.657714" lon="10.2002656"><ele>279.0</ele><time>2026-05-04T20:01:20.95Z</time></trkpt><trkpt lat="45.6578369" lon="10.2002589"><ele>278.0</ele><time>2026-05-04T20:01:22.008Z</time></trkpt><trkpt lat="45.6579568" lon="10.2002277"><ele>278.0</ele><time>2026-05-04T20:01:23.008Z</time></trkpt><trkpt lat="45.6580596" lon="10.2001717"><ele>278.0</ele><time>2026-05-04T20:01:24.008Z</time></trkpt><trkpt lat="45.658175" lon="10.2001049"><ele>278.0</ele><time>2026-05-04T20:01:25.008Z</time></trkpt><trkpt lat="45.6582642" lon="10.200038"><ele>278.0</ele><time>2026-05-04T20:01:26.008Z</time></trkpt><trkpt lat="45.6583395" lon="10.1999594"><ele>278.0</ele><time>2026-05-04T20:01:27.008Z</time></trkpt><trkpt lat="45.658431" lon="10.1998932"><ele>278.25</ele><time>2026-05-04T20:01:27.95Z</time></trkpt><trkpt lat="45.6585257" lon="10.1998071"><ele>278.5</ele><time>2026-05-04T20:01:29.008Z</time></trkpt><trkpt lat="45.6586217" lon="10.199738"><ele>278.75</ele><time>2026-05-04T20:01:30.008Z</time></trkpt><trkpt lat="45.6587238" lon="10.1996399"><ele>279.0</ele><time>2026-05-04T20:01:31.009Z</time></trkpt><trkpt lat="45.6588418" lon="10.1995831"><ele>279.0</ele><time>2026-05-04T20:01:31.987Z</time></trkpt><trkpt lat="45.6589514" lon="10.1994936"><ele>279.0</ele><time>2026-05-04T20:01:32.956Z</time></trkpt><trkpt lat="45.6590511" lon="10.1994376"><ele>279.0</ele><time>2026-05-04T20:01:34.008Z</time></trkpt><trkpt lat="45.6591576" lon="10.199363"><ele>279.0</ele><time>2026-05-04T20:01:35.008Z</time></trkpt><trkpt lat="45.6592706" lon="10.1992928"><ele>279.0</ele><time>2026-05-04T20:01:36.008Z</time></trkpt><trkpt lat="45.6593594" lon="10.1992222"><ele>279.0</ele><time>2026-05-04T20:01:37.008Z</time></trkpt><trkpt lat="45.6594804" lon="10.1991886"><ele>279.0</ele><time>2026-05-04T20:01:37.955Z</time></trkpt><trkpt lat="45.6595904" lon="10.1991445"><ele>279.0</ele><time>2026-05-04T20:01:39.008Z</time></trkpt><trkpt lat="45.6601334" lon="10.198516"><ele>278.4</ele><time>2026-05-04T20:01:48.661Z</time></trkpt><trkpt lat="45.6600616" lon="10.1984348"><ele>277.79999999999995</ele><time>2026-05-04T20:01:49.657Z</time></trkpt><trkpt lat="45.6599972" lon="10.1983345"><ele>277.20000000000005</ele><time>2026-05-04T20:01:51.63Z</time></trkpt><trkpt lat="45.6599024" lon="10.1981749"><ele>276.6</ele><time>2026-05-04T20:01:52.988Z</time></trkpt><trkpt lat="45.6598702" lon="10.1980867"><ele>276.0</ele><time>2026-05-04T20:01:53.991Z</time></trkpt><trkpt lat="45.659839" lon="10.1980009"><ele>275.5</ele><time>2026-05-04T20:01:55.998Z</time></trkpt><trkpt lat="45.6598707" lon="10.1978991"><ele>275.0</ele><time>2026-05-04T20:01:57.991Z</time></trkpt><trkpt lat="45.6599739" lon="10.1977933"><ele>274.5</ele><time>2026-05-04T20:01:59.942Z</time></trkpt><trkpt lat="45.6600476" lon="10.1977529"><ele>274.0</ele><time>2026-05-04T20:02:00.941Z</time></trkpt><trkpt lat="45.6601133" lon="10.1977216"><ele>273.5</ele><time>2026-05-04T20:02:01.991Z</time></trkpt><trkpt lat="45.6601842" lon="10.1977149"><ele>273.0</ele><time>2026-05-04T20:02:02.938Z</time></trkpt><trkpt lat="45.6602704" lon="10.1977142"><ele>273.75</ele><time>2026-05-04T20:02:03.991Z</time></trkpt><trkpt lat="45.6604061" lon="10.1977097"><ele>274.5</ele><time>2026-05-04T20:02:04.991Z</time></trkpt><trkpt lat="45.6605296" lon="10.1976885"><ele>275.25</ele><time>2026-05-04T20:02:05.991Z</time></trkpt><trkpt lat="45.660631" lon="10.1976738"><ele>276.0</ele><time>2026-05-04T20:02:06.991Z</time></trkpt><trkpt lat="45.6607536" lon="10.1976503"><ele>276.0</ele><time>2026-05-04T20:02:07.991Z</time></trkpt><trkpt lat="45.6608922" lon="10.1976346"><ele>276.0</ele><time>2026-05-04T20:02:08.991Z</time></trkpt><trkpt lat="45.6610165" lon="10.1976163"><ele>276.0</ele><time>2026-05-04T20:02:09.991Z</time></trkpt><trkpt lat="45.661153" lon="10.1975987"><ele>276.0</ele><time>2026-05-04T20:02:10.974Z</time></trkpt><trkpt lat="45.6612907" lon="10.197578"><ele>276.3333333333333</ele><time>2026-05-04T20:02:11.992Z</time></trkpt><trkpt lat="45.6614496" lon="10.1975653"><ele>276.66666666666663</ele><time>2026-05-04T20:02:12.991Z</time></trkpt><trkpt lat="45.661598" lon="10.1975442"><ele>277.0</ele><time>2026-05-04T20:02:13.991Z</time></trkpt><trkpt lat="45.6617565" lon="10.1975289"><ele>277.0</ele><time>2026-05-04T20:02:14.992Z</time></trkpt><trkpt lat="45.6618925" lon="10.197505"><ele>277.0</ele><time>2026-05-04T20:02:15.991Z</time></trkpt><trkpt lat="45.6620417" lon="10.1974982"><ele>277.0</ele><time>2026-05-04T20:02:16.992Z</time></trkpt><trkpt lat="45.66218" lon="10.1974692"><ele>277.0</ele><time>2026-05-04T20:02:17.948Z</time></trkpt><trkpt lat="45.6623364" lon="10.197444"><ele>278.25</ele><time>2026-05-04T20:02:18.991Z</time></trkpt><trkpt lat="45.6624518" lon="10.1974295"><ele>279.5</ele><time>2026-05-04T20:02:19.992Z</time></trkpt><trkpt lat="45.6626001" lon="10.1974238"><ele>280.75</ele><time>2026-05-04T20:02:20.991Z</time></trkpt><trkpt lat="45.6627625" lon="10.1974185"><ele>282.0</ele><time>2026-05-04T20:02:21.991Z</time></trkpt><trkpt lat="45.6629364" lon="10.1973813"><ele>281.75</ele><time>2026-05-04T20:02:22.992Z</time></trkpt><trkpt lat="45.6630746" lon="10.1973207"><ele>281.5</ele><time>2026-05-04T20:02:23.991Z</time></trkpt><trkpt lat="45.663212" lon="10.1972404"><ele>281.25</ele><time>2026-05-04T20:02:24.991Z</time></trkpt><trkpt lat="45.6633402" lon="10.1971553"><ele>281.0</ele><time>2026-05-04T20:02:25.991Z</time></trkpt><trkpt lat="45.6634774" lon="10.1970612"><ele>281.0</ele><time>2026-05-04T20:02:26.945Z</time></trkpt><trkpt lat="45.6636032" lon="10.1969325"><ele>281.0</ele><time>2026-05-04T20:02:27.991Z</time></trkpt><trkpt lat="45.6637267" lon="10.196793"><ele>281.0</ele><time>2026-05-04T20:02:28.991Z</time></trkpt><trkpt lat="45.6638728" lon="10.1966669"><ele>280.33333333333337</ele><time>2026-05-04T20:02:29.991Z</time></trkpt><trkpt lat="45.664001" lon="10.1965575"><ele>279.6666666666667</ele><time>2026-05-04T20:02:30.991Z</time></trkpt><trkpt lat="45.6641395" lon="10.1964393"><ele>279.0</ele><time>2026-05-04T20:02:31.991Z</time></trkpt><trkpt lat="45.6642692" lon="10.1963165"><ele>279.0</ele><time>2026-05-04T20:02:32.936Z</time></trkpt><trkpt lat="45.6644158" lon="10.1962268"><ele>279.0</ele><time>2026-05-04T20:02:33.992Z</time></trkpt><trkpt lat="45.6645501" lon="10.1961059"><ele>279.0</ele><time>2026-05-04T20:02:34.991Z</time></trkpt><trkpt lat="45.6646794" lon="10.1959991"><ele>280.0</ele><time>2026-05-04T20:02:35.991Z</time></trkpt><trkpt lat="45.6648142" lon="10.1958598"><ele>281.0</ele><time>2026-05-04T20:02:36.991Z</time></trkpt><trkpt lat="45.6649358" lon="10.1957175"><ele>282.0</ele><time>2026-05-04T20:02:37.991Z</time></trkpt><trkpt lat="45.6650709" lon="10.1955773"><ele>282.0</ele><time>2026-05-04T20:02:38.991Z</time></trkpt><trkpt lat="45.6652035" lon="10.1954113"><ele>282.0</ele><time>2026-05-04T20:02:39.991Z</time></trkpt><trkpt lat="45.6653382" lon="10.1952801"><ele>282.0</ele><time>2026-05-04T20:02:40.991Z</time></trkpt><trkpt lat="45.6654691" lon="10.1951287"><ele>283.0</ele><time>2026-05-04T20:02:41.991Z</time></trkpt><trkpt lat="45.6656098" lon="10.1949829"><ele>284.0</ele><time>2026-05-04T20:02:42.991Z</time></trkpt><trkpt lat="45.6657375" lon="10.1948262"><ele>285.0</ele><time>2026-05-04T20:02:43.991Z</time></trkpt><trkpt lat="45.6658673" lon="10.194675"><ele>285.0</ele><time>2026-05-04T20:02:44.991Z</time></trkpt><trkpt lat="45.6659974" lon="10.1945224"><ele>285.0</ele><time>2026-05-04T20:02:45.991Z</time></trkpt><trkpt lat="45.6661242" lon="10.1943724"><ele>285.0</ele><time>2026-05-04T20:02:46.991Z</time></trkpt><trkpt lat="45.6662685" lon="10.194246"><ele>285.6666666666667</ele><time>2026-05-04T20:02:47.991Z</time></trkpt><trkpt lat="45.6663879" lon="10.1941102"><ele>286.33333333333337</ele><time>2026-05-04T20:02:48.991Z</time></trkpt><trkpt lat="45.6665205" lon="10.1939808"><ele>287.0</ele><time>2026-05-04T20:02:49.991Z</time></trkpt><trkpt lat="45.6666197" lon="10.1938282"><ele>287.0</ele><time>2026-05-04T20:02:50.991Z</time></trkpt><trkpt lat="45.666751" lon="10.1936916"><ele>287.0</ele><time>2026-05-04T20:02:51.991Z</time></trkpt><trkpt lat="45.666878" lon="10.1935451"><ele>287.0</ele><time>2026-05-04T20:02:52.94Z</time></trkpt><trkpt lat="45.6669893" lon="10.1933376"><ele>287.0</ele><time>2026-05-04T20:02:53.991Z</time></trkpt><trkpt lat="45.6671304" lon="10.1932181"><ele>287.0</ele><time>2026-05-04T20:02:54.991Z</time></trkpt><trkpt lat="45.6672436" lon="10.1930493"><ele>287.0</ele><time>2026-05-04T20:02:55.991Z</time></trkpt><trkpt lat="45.6673355" lon="10.1929352"><ele>287.0</ele><time>2026-05-04T20:02:56.991Z</time></trkpt><trkpt lat="45.6674269" lon="10.1928094"><ele>287.0</ele><time>2026-05-04T20:02:57.991Z</time></trkpt><trkpt lat="45.6675288" lon="10.1926639"><ele>287.0</ele><time>2026-05-04T20:02:58.991Z</time></trkpt><trkpt lat="45.6676363" lon="10.1925415"><ele>287.0</ele><time>2026-05-04T20:02:59.991Z</time></trkpt><trkpt lat="45.6677437" lon="10.192419"><ele>287.0</ele><time>2026-05-04T20:03:00.991Z</time></trkpt><trkpt lat="45.6678591" lon="10.1922925"><ele>287.5</ele><time>2026-05-04T20:03:01.991Z</time></trkpt><trkpt lat="45.6679715" lon="10.1921623"><ele>288.0</ele><time>2026-05-04T20:03:02.991Z</time></trkpt><trkpt lat="45.6680821" lon="10.1920349"><ele>288.5</ele><time>2026-05-04T20:03:03.991Z</time></trkpt><trkpt lat="45.6681998" lon="10.1919028"><ele>289.0</ele><time>2026-05-04T20:03:04.942Z</time></trkpt><trkpt lat="45.6683167" lon="10.1917612"><ele>289.0</ele><time>2026-05-04T20:03:05.991Z</time></trkpt><trkpt lat="45.668438" lon="10.1916165"><ele>289.0</ele><time>2026-05-04T20:03:06.991Z</time></trkpt><trkpt lat="45.6685578" lon="10.1914852"><ele>289.0</ele><time>2026-05-04T20:03:07.991Z</time></trkpt><trkpt lat="45.6686722" lon="10.1913355"><ele>290.0</ele><time>2026-05-04T20:03:08.991Z</time></trkpt><trkpt lat="45.668776" lon="10.1911727"><ele>291.0</ele><time>2026-05-04T20:03:09.953Z</time></trkpt><trkpt lat="45.6688985" lon="10.1910202"><ele>292.0</ele><time>2026-05-04T20:03:10.973Z</time></trkpt><trkpt lat="45.6690285" lon="10.1908741"><ele>292.0</ele><time>2026-05-04T20:03:11.99Z</time></trkpt><trkpt lat="45.6691318" lon="10.190707"><ele>292.0</ele><time>2026-05-04T20:03:12.991Z</time></trkpt><trkpt lat="45.6692567" lon="10.1905692"><ele>292.0</ele><time>2026-05-04T20:03:13.992Z</time></trkpt><trkpt lat="45.6693791" lon="10.1904193"><ele>292.66666666666663</ele><time>2026-05-04T20:03:14.991Z</time></trkpt><trkpt lat="45.6695158" lon="10.190268"><ele>293.3333333333333</ele><time>2026-05-04T20:03:15.991Z</time></trkpt><trkpt lat="45.6696403" lon="10.1901178"><ele>294.0</ele><time>2026-05-04T20:03:16.991Z</time></trkpt><trkpt lat="45.6697668" lon="10.1899707"><ele>292.3333333333333</ele><time>2026-05-04T20:03:17.951Z</time></trkpt><trkpt lat="45.6699023" lon="10.1898217"><ele>290.66666666666663</ele><time>2026-05-04T20:03:18.946Z</time></trkpt><trkpt lat="45.670003" lon="10.1896358"><ele>289.0</ele><time>2026-05-04T20:03:19.948Z</time></trkpt><trkpt lat="45.6701164" lon="10.1895149"><ele>289.0</ele><time>2026-05-04T20:03:20.949Z</time></trkpt><trkpt lat="45.6702352" lon="10.1893824"><ele>289.0</ele><time>2026-05-04T20:03:21.948Z</time></trkpt><trkpt lat="45.6703439" lon="10.1892292"><ele>289.0</ele><time>2026-05-04T20:03:22.949Z</time></trkpt><trkpt lat="45.6704505" lon="10.1890745"><ele>289.5</ele><time>2026-05-04T20:03:23.991Z</time></trkpt><trkpt lat="45.6705387" lon="10.1889307"><ele>290.0</ele><time>2026-05-04T20:03:24.992Z</time></trkpt><trkpt lat="45.6706359" lon="10.1888071"><ele>290.5</ele><time>2026-05-04T20:03:25.991Z</time></trkpt><trkpt lat="45.6707098" lon="10.1886621"><ele>291.0</ele><time>2026-05-04T20:03:26.991Z</time></trkpt><trkpt lat="45.6707798" lon="10.188557"><ele>291.0</ele><time>2026-05-04T20:03:27.991Z</time></trkpt><trkpt lat="45.6708542" lon="10.188464"><ele>291.0</ele><time>2026-05-04T20:03:28.991Z</time></trkpt><trkpt lat="45.6709128" lon="10.1883575"><ele>291.0</ele><time>2026-05-04T20:03:29.992Z</time></trkpt><trkpt lat="45.6709641" lon="10.1882593"><ele>291.0</ele><time>2026-05-04T20:03:30.991Z</time></trkpt><trkpt lat="45.6710211" lon="10.1882005"><ele>291.0</ele><time>2026-05-04T20:03:31.992Z</time></trkpt><trkpt lat="45.6710756" lon="10.1881284"><ele>291.0</ele><time>2026-05-04T20:03:32.991Z</time></trkpt><trkpt lat="45.6711349" lon="10.1880002"><ele>291.42857142857144</ele><time>2026-05-04T20:03:34.991Z</time></trkpt><trkpt lat="45.6711676" lon="10.1879093"><ele>291.85714285714283</ele><time>2026-05-04T20:04:08.991Z</time></trkpt><trkpt lat="45.6712377" lon="10.1878246"><ele>292.2857142857143</ele><time>2026-05-04T20:04:10.991Z</time></trkpt><trkpt lat="45.6712873" lon="10.187767"><ele>292.7142857142857</ele><time>2026-05-04T20:04:11.992Z</time></trkpt><trkpt lat="45.6713337" lon="10.1876924"><ele>293.1428571428571</ele><time>2026-05-04T20:04:12.991Z</time></trkpt><trkpt lat="45.6713843" lon="10.1875999"><ele>293.57142857142856</ele><time>2026-05-04T20:04:13.949Z</time></trkpt><trkpt lat="45.6714168" lon="10.1875139"><ele>294.0</ele><time>2026-05-04T20:04:14.991Z</time></trkpt><trkpt lat="45.6714262" lon="10.1874131"><ele>294.0</ele><time>2026-05-04T20:04:15.991Z</time></trkpt><trkpt lat="45.6713841" lon="10.1872702"><ele>294.0</ele><time>2026-05-04T20:04:17.941Z</time></trkpt><trkpt lat="45.6713316" lon="10.1872113"><ele>294.0</ele><time>2026-05-04T20:04:18.991Z</time></trkpt><trkpt lat="45.6712751" lon="10.1871554"><ele>294.0</ele><time>2026-05-04T20:04:19.991Z</time></trkpt><trkpt lat="45.6712185" lon="10.1871024"><ele>294.0</ele><time>2026-05-04T20:04:20.991Z</time></trkpt><trkpt lat="45.6711697" lon="10.1870305"><ele>294.0</ele><time>2026-05-04T20:04:21.991Z</time></trkpt><trkpt lat="45.6711275" lon="10.1869496"><ele>293.8</ele><time>2026-05-04T20:04:22.992Z</time></trkpt><trkpt lat="45.671078" lon="10.186871"><ele>293.59999999999997</ele><time>2026-05-04T20:04:23.991Z</time></trkpt><trkpt lat="45.6710278" lon="10.1868028"><ele>293.4</ele><time>2026-05-04T20:04:24.991Z</time></trkpt><trkpt lat="45.6709799" lon="10.1867221"><ele>293.2</ele><time>2026-05-04T20:04:25.991Z</time></trkpt><trkpt lat="45.6709232" lon="10.1866312"><ele>293.0</ele><time>2026-05-04T20:04:26.991Z</time></trkpt><trkpt lat="45.6708393" lon="10.1864214"><ele>293.4</ele><time>2026-05-04T20:04:27.991Z</time></trkpt><trkpt lat="45.670783" lon="10.1863064"><ele>293.8</ele><time>2026-05-04T20:04:28.991Z</time></trkpt><trkpt lat="45.6707019" lon="10.1861874"><ele>294.2</ele><time>2026-05-04T20:04:29.991Z</time></trkpt><trkpt lat="45.6706346" lon="10.1860428"><ele>294.6</ele><time>2026-05-04T20:04:30.988Z</time></trkpt><trkpt lat="45.670565" lon="10.1859446"><ele>295.0</ele><time>2026-05-04T20:04:31.991Z</time></trkpt><trkpt lat="45.6704975" lon="10.1858568"><ele>295.0</ele><time>2026-05-04T20:04:32.991Z</time></trkpt><trkpt lat="45.6704402" lon="10.1857789"><ele>295.0</ele><time>2026-05-04T20:04:33.991Z</time></trkpt><trkpt lat="45.6703706" lon="10.1856694"><ele>295.0</ele><time>2026-05-04T20:04:34.937Z</time></trkpt><trkpt lat="45.6703014" lon="10.1855498"><ele>295.0</ele><time>2026-05-04T20:04:35.943Z</time></trkpt><trkpt lat="45.6702308" lon="10.1854072"><ele>295.0</ele><time>2026-05-04T20:04:36.991Z</time></trkpt><trkpt lat="45.6701629" lon="10.185286"><ele>295.0</ele><time>2026-05-04T20:04:37.991Z</time></trkpt><trkpt lat="45.6701022" lon="10.1851504"><ele>295.0</ele><time>2026-05-04T20:04:38.991Z</time></trkpt><trkpt lat="45.6700621" lon="10.1849488"><ele>295.0</ele><time>2026-05-04T20:04:39.991Z</time></trkpt><trkpt lat="45.6700245" lon="10.1847931"><ele>295.0</ele><time>2026-05-04T20:04:40.991Z</time></trkpt><trkpt lat="45.6699843" lon="10.1846212"><ele>296.25</ele><time>2026-05-04T20:04:41.991Z</time></trkpt><trkpt lat="45.6699779" lon="10.1844585"><ele>297.5</ele><time>2026-05-04T20:04:42.991Z</time></trkpt><trkpt lat="45.6699565" lon="10.1842904"><ele>298.75</ele><time>2026-05-04T20:04:43.991Z</time></trkpt><trkpt lat="45.6699508" lon="10.184101"><ele>300.0</ele><time>2026-05-04T20:04:44.991Z</time></trkpt><trkpt lat="45.6699364" lon="10.1839271"><ele>301.75</ele><time>2026-05-04T20:04:45.992Z</time></trkpt><trkpt lat="45.6699687" lon="10.1837448"><ele>303.5</ele><time>2026-05-04T20:04:46.991Z</time></trkpt><trkpt lat="45.6699713" lon="10.1835669"><ele>305.25</ele><time>2026-05-04T20:04:47.991Z</time></trkpt><trkpt lat="45.6699734" lon="10.1833905"><ele>307.0</ele><time>2026-05-04T20:04:48.947Z</time></trkpt><trkpt lat="45.6699764" lon="10.1832159"><ele>306.75</ele><time>2026-05-04T20:04:49.935Z</time></trkpt><trkpt lat="45.6699844" lon="10.1830535"><ele>306.5</ele><time>2026-05-04T20:04:50.991Z</time></trkpt><trkpt lat="45.6699897" lon="10.182884"><ele>306.25</ele><time>2026-05-04T20:04:51.991Z</time></trkpt><trkpt lat="45.6700734" lon="10.1827398"><ele>306.0</ele><time>2026-05-04T20:04:52.991Z</time></trkpt><trkpt lat="45.6701246" lon="10.1825783"><ele>306.0</ele><time>2026-05-04T20:04:53.991Z</time></trkpt><trkpt lat="45.6701889" lon="10.182442"><ele>306.0</ele><time>2026-05-04T20:04:54.991Z</time></trkpt><trkpt lat="45.670225" lon="10.1822772"><ele>306.0</ele><time>2026-05-04T20:04:55.991Z</time></trkpt><trkpt lat="45.6702679" lon="10.1820813"><ele>306.0</ele><time>2026-05-04T20:04:56.991Z</time></trkpt><trkpt lat="45.6703074" lon="10.181922"><ele>308.5</ele><time>2026-05-04T20:04:57.974Z</time></trkpt><trkpt lat="45.6703403" lon="10.1817308"><ele>311.0</ele><time>2026-05-04T20:04:58.95Z</time></trkpt><trkpt lat="45.6703765" lon="10.1815573"><ele>313.5</ele><time>2026-05-04T20:04:59.991Z</time></trkpt><trkpt lat="45.6704132" lon="10.1813806"><ele>316.0</ele><time>2026-05-04T20:05:00.942Z</time></trkpt><trkpt lat="45.6704414" lon="10.1812105"><ele>316.0</ele><time>2026-05-04T20:05:01.991Z</time></trkpt><trkpt lat="45.670464" lon="10.1810428"><ele>316.0</ele><time>2026-05-04T20:05:02.991Z</time></trkpt><trkpt lat="45.6704796" lon="10.1808746"><ele>316.0</ele><time>2026-05-04T20:05:03.991Z</time></trkpt><trkpt lat="45.6704956" lon="10.1806977"><ele>316.0</ele><time>2026-05-04T20:05:04.991Z</time></trkpt><trkpt lat="45.6705047" lon="10.1805129"><ele>316.0</ele><time>2026-05-04T20:05:05.991Z</time></trkpt><trkpt lat="45.6705272" lon="10.1803322"><ele>316.0</ele><time>2026-05-04T20:05:06.991Z</time></trkpt><trkpt lat="45.6705423" lon="10.1801648"><ele>316.0</ele><time>2026-05-04T20:05:07.95Z</time></trkpt><trkpt lat="45.67056" lon="10.1799922"><ele>316.0</ele><time>2026-05-04T20:05:08.991Z</time></trkpt><trkpt lat="45.6705825" lon="10.1798091"><ele>315.25</ele><time>2026-05-04T20:05:09.946Z</time></trkpt><trkpt lat="45.6705925" lon="10.1796159"><ele>314.5</ele><time>2026-05-04T20:05:10.947Z</time></trkpt><trkpt lat="45.6706009" lon="10.1794149"><ele>313.75</ele><time>2026-05-04T20:05:11.954Z</time></trkpt><trkpt lat="45.6706254" lon="10.1792619"><ele>313.0</ele><time>2026-05-04T20:05:12.946Z</time></trkpt><trkpt lat="45.6706394" lon="10.1790681"><ele>313.0</ele><time>2026-05-04T20:05:13.943Z</time></trkpt><trkpt lat="45.6706638" lon="10.1788864"><ele>313.0</ele><time>2026-05-04T20:05:14.991Z</time></trkpt><trkpt lat="45.6706767" lon="10.1787246"><ele>313.0</ele><time>2026-05-04T20:05:15.948Z</time></trkpt><trkpt lat="45.6706932" lon="10.1785211"><ele>313.0</ele><time>2026-05-04T20:05:16.991Z</time></trkpt><trkpt lat="45.6707235" lon="10.1783493"><ele>312.25</ele><time>2026-05-04T20:05:17.991Z</time></trkpt><trkpt lat="45.6707438" lon="10.1781703"><ele>311.5</ele><time>2026-05-04T20:05:18.942Z</time></trkpt><trkpt lat="45.6707691" lon="10.1779847"><ele>310.75</ele><time>2026-05-04T20:05:19.951Z</time></trkpt><trkpt lat="45.670813" lon="10.1778079"><ele>310.0</ele><time>2026-05-04T20:05:20.955Z</time></trkpt><trkpt lat="45.6708649" lon="10.1776379"><ele>310.0</ele><time>2026-05-04T20:05:21.991Z</time></trkpt><trkpt lat="45.6709295" lon="10.177498"><ele>310.0</ele><time>2026-05-04T20:05:22.991Z</time></trkpt><trkpt lat="45.6709728" lon="10.1773324"><ele>310.0</ele><time>2026-05-04T20:05:23.991Z</time></trkpt><trkpt lat="45.671028" lon="10.1771774"><ele>310.0</ele><time>2026-05-04T20:05:24.991Z</time></trkpt><trkpt lat="45.6710743" lon="10.1770019"><ele>315.75</ele><time>2026-05-04T20:05:25.992Z</time></trkpt><trkpt lat="45.6711098" lon="10.1768299"><ele>321.5</ele><time>2026-05-04T20:05:26.991Z</time></trkpt><trkpt lat="45.6711283" lon="10.1766318"><ele>327.25</ele><time>2026-05-04T20:05:27.991Z</time></trkpt><trkpt lat="45.6711314" lon="10.1764766"><ele>333.0</ele><time>2026-05-04T20:05:28.991Z</time></trkpt><trkpt lat="45.6711218" lon="10.1762745"><ele>333.0</ele><time>2026-05-04T20:05:29.991Z</time></trkpt><trkpt lat="45.6711085" lon="10.1760795"><ele>333.0</ele><time>2026-05-04T20:05:30.991Z</time></trkpt><trkpt lat="45.67111" lon="10.1758993"><ele>333.0</ele><time>2026-05-04T20:05:31.991Z</time></trkpt><trkpt lat="45.6710979" lon="10.1757034"><ele>333.0</ele><time>2026-05-04T20:05:32.991Z</time></trkpt><trkpt lat="45.6710922" lon="10.1755239"><ele>329.75</ele><time>2026-05-04T20:05:33.943Z</time></trkpt><trkpt lat="45.6710818" lon="10.1753538"><ele>326.5</ele><time>2026-05-04T20:05:34.991Z</time></trkpt><trkpt lat="45.6710721" lon="10.1751516"><ele>323.25</ele><time>2026-05-04T20:05:35.991Z</time></trkpt><trkpt lat="45.6710864" lon="10.1749711"><ele>320.0</ele><time>2026-05-04T20:05:36.991Z</time></trkpt><trkpt lat="45.6711047" lon="10.1747885"><ele>323.75</ele><time>2026-05-04T20:05:37.946Z</time></trkpt><trkpt lat="45.6711529" lon="10.1746154"><ele>327.5</ele><time>2026-05-04T20:05:38.991Z</time></trkpt><trkpt lat="45.6712056" lon="10.1744343"><ele>331.25</ele><time>2026-05-04T20:05:39.991Z</time></trkpt><trkpt lat="45.6712644" lon="10.1742366"><ele>335.0</ele><time>2026-05-04T20:05:40.991Z</time></trkpt><trkpt lat="45.671318" lon="10.1740623"><ele>333.5</ele><time>2026-05-04T20:05:41.992Z</time></trkpt><trkpt lat="45.6713778" lon="10.1738854"><ele>332.0</ele><time>2026-05-04T20:05:42.983Z</time></trkpt><trkpt lat="45.6714327" lon="10.1737123"><ele>330.5</ele><time>2026-05-04T20:05:43.991Z</time></trkpt><trkpt lat="45.6714882" lon="10.1735321"><ele>329.0</ele><time>2026-05-04T20:05:44.991Z</time></trkpt><trkpt lat="45.6715034" lon="10.1732808"><ele>328.0</ele><time>2026-05-04T20:05:45.991Z</time></trkpt><trkpt lat="45.6715447" lon="10.173087"><ele>327.0</ele><time>2026-05-04T20:05:46.991Z</time></trkpt><trkpt lat="45.6714698" lon="10.1728605"><ele>326.0</ele><time>2026-05-04T20:05:47.991Z</time></trkpt><trkpt lat="45.6714671" lon="10.1726546"><ele>326.0</ele><time>2026-05-04T20:05:48.991Z</time></trkpt><trkpt lat="45.6714416" lon="10.1724247"><ele>326.0</ele><time>2026-05-04T20:05:49.991Z</time></trkpt><trkpt lat="45.671384" lon="10.1722152"><ele>326.0</ele><time>2026-05-04T20:05:50.991Z</time></trkpt><trkpt lat="45.6713399" lon="10.1720056"><ele>326.33333333333337</ele><time>2026-05-04T20:05:51.991Z</time></trkpt><trkpt lat="45.6713234" lon="10.1717758"><ele>326.6666666666667</ele><time>2026-05-04T20:05:52.991Z</time></trkpt><trkpt lat="45.6712833" lon="10.1715596"><ele>327.0</ele><time>2026-05-04T20:05:53.991Z</time></trkpt><trkpt lat="45.671244" lon="10.1713293"><ele>328.75</ele><time>2026-05-04T20:05:54.991Z</time></trkpt><trkpt lat="45.6712199" lon="10.1711229"><ele>330.5</ele><time>2026-05-04T20:05:55.991Z</time></trkpt><trkpt lat="45.671186" lon="10.1709231"><ele>332.25</ele><time>2026-05-04T20:05:56.991Z</time></trkpt><trkpt lat="45.6711531" lon="10.1707343"><ele>334.0</ele><time>2026-05-04T20:05:57.991Z</time></trkpt><trkpt lat="45.6711205" lon="10.1705145"><ele>331.66666666666663</ele><time>2026-05-04T20:05:58.991Z</time></trkpt><trkpt lat="45.6710822" lon="10.1703082"><ele>329.3333333333333</ele><time>2026-05-04T20:05:59.991Z</time></trkpt><trkpt lat="45.6710614" lon="10.1701029"><ele>327.0</ele><time>2026-05-04T20:06:00.991Z</time></trkpt><trkpt lat="45.6709843" lon="10.1699077"><ele>327.6666666666667</ele><time>2026-05-04T20:06:01.991Z</time></trkpt><trkpt lat="45.6709368" lon="10.1696917"><ele>328.33333333333337</ele><time>2026-05-04T20:06:02.991Z</time></trkpt><trkpt lat="45.6708898" lon="10.1694701"><ele>329.0</ele><time>2026-05-04T20:06:03.959Z</time></trkpt><trkpt lat="45.6708438" lon="10.1692486"><ele>329.0</ele><time>2026-05-04T20:06:04.943Z</time></trkpt><trkpt lat="45.670819" lon="10.1690296"><ele>329.0</ele><time>2026-05-04T20:06:05.944Z</time></trkpt><trkpt lat="45.6707816" lon="10.1688024"><ele>329.0</ele><time>2026-05-04T20:06:06.943Z</time></trkpt><trkpt lat="45.670758" lon="10.1685969"><ele>329.33333333333337</ele><time>2026-05-04T20:06:07.943Z</time></trkpt><trkpt lat="45.670722" lon="10.1683755"><ele>329.6666666666667</ele><time>2026-05-04T20:06:08.991Z</time></trkpt><trkpt lat="45.6706869" lon="10.1681604"><ele>330.0</ele><time>2026-05-04T20:06:09.991Z</time></trkpt><trkpt lat="45.6706527" lon="10.1679351"><ele>330.3333333333333</ele><time>2026-05-04T20:06:10.991Z</time></trkpt><trkpt lat="45.6706085" lon="10.1677213"><ele>330.66666666666663</ele><time>2026-05-04T20:06:11.991Z</time></trkpt><trkpt lat="45.6705757" lon="10.1675036"><ele>331.0</ele><time>2026-05-04T20:06:12.991Z</time></trkpt><trkpt lat="45.6705329" lon="10.1672834"><ele>332.0</ele><time>2026-05-04T20:06:13.991Z</time></trkpt><trkpt lat="45.6704999" lon="10.1670685"><ele>333.0</ele><time>2026-05-04T20:06:14.991Z</time></trkpt><trkpt lat="45.6704657" lon="10.1668492"><ele>334.0</ele><time>2026-05-04T20:06:15.991Z</time></trkpt><trkpt lat="45.6704316" lon="10.1666363"><ele>336.3333333333333</ele><time>2026-05-04T20:06:16.991Z</time></trkpt><trkpt lat="45.6703965" lon="10.1664148"><ele>338.6666666666667</ele><time>2026-05-04T20:06:17.991Z</time></trkpt><trkpt lat="45.67037" lon="10.1662149"><ele>341.0</ele><time>2026-05-04T20:06:18.942Z</time></trkpt><trkpt lat="45.670329" lon="10.166"><ele>341.0</ele><time>2026-05-04T20:06:19.948Z</time></trkpt><trkpt lat="45.6702994" lon="10.1657931"><ele>341.0</ele><time>2026-05-04T20:06:20.946Z</time></trkpt><trkpt lat="45.6702361" lon="10.1654169"><ele>341.0</ele><time>2026-05-04T20:06:22.991Z</time></trkpt><trkpt lat="45.670211" lon="10.1652239"><ele>340.75</ele><time>2026-05-04T20:06:23.991Z</time></trkpt><trkpt lat="45.6701806" lon="10.1650413"><ele>340.5</ele><time>2026-05-04T20:06:24.991Z</time></trkpt><trkpt lat="45.6701526" lon="10.1648556"><ele>340.25</ele><time>2026-05-04T20:06:25.991Z</time></trkpt><trkpt lat="45.6701218" lon="10.1646758"><ele>340.0</ele><time>2026-05-04T20:06:26.991Z</time></trkpt><trkpt lat="45.670094" lon="10.1645038"><ele>340.0</ele><time>2026-05-04T20:06:27.991Z</time></trkpt><trkpt lat="45.6700722" lon="10.1643358"><ele>340.0</ele><time>2026-05-04T20:06:28.991Z</time></trkpt><trkpt lat="45.6700407" lon="10.1641623"><ele>340.0</ele><time>2026-05-04T20:06:29.991Z</time></trkpt><trkpt lat="45.6700089" lon="10.1639979"><ele>340.0</ele><time>2026-05-04T20:06:30.991Z</time></trkpt><trkpt lat="45.6699808" lon="10.1638079"><ele>340.75</ele><time>2026-05-04T20:06:31.991Z</time></trkpt><trkpt lat="45.669959" lon="10.1636229"><ele>341.5</ele><time>2026-05-04T20:06:32.991Z</time></trkpt><trkpt lat="45.6699269" lon="10.1634414"><ele>342.25</ele><time>2026-05-04T20:06:33.991Z</time></trkpt><trkpt lat="45.6698972" lon="10.1632557"><ele>343.0</ele><time>2026-05-04T20:06:34.991Z</time></trkpt><trkpt lat="45.6698681" lon="10.1630835"><ele>343.25</ele><time>2026-05-04T20:06:35.991Z</time></trkpt><trkpt lat="45.6698393" lon="10.1629144"><ele>343.5</ele><time>2026-05-04T20:06:36.992Z</time></trkpt><trkpt lat="45.669816" lon="10.1627398"><ele>343.75</ele><time>2026-05-04T20:06:37.991Z</time></trkpt><trkpt lat="45.6697817" lon="10.1625639"><ele>344.0</ele><time>2026-05-04T20:06:38.991Z</time></trkpt><trkpt lat="45.6697444" lon="10.1623843"><ele>345.5</ele><time>2026-05-04T20:06:39.991Z</time></trkpt><trkpt lat="45.6697103" lon="10.162204"><ele>347.0</ele><time>2026-05-04T20:06:40.991Z</time></trkpt><trkpt lat="45.6696769" lon="10.1620235"><ele>348.5</ele><time>2026-05-04T20:06:41.991Z</time></trkpt><trkpt lat="45.6696551" lon="10.1618811"><ele>350.0</ele><time>2026-05-04T20:06:42.991Z</time></trkpt><trkpt lat="45.6696107" lon="10.1616795"><ele>350.5</ele><time>2026-05-04T20:06:43.991Z</time></trkpt><trkpt lat="45.6695673" lon="10.1615029"><ele>351.0</ele><time>2026-05-04T20:06:44.991Z</time></trkpt><trkpt lat="45.6695312" lon="10.1613294"><ele>351.5</ele><time>2026-05-04T20:06:45.991Z</time></trkpt><trkpt lat="45.6694784" lon="10.1611368"><ele>352.0</ele><time>2026-05-04T20:06:46.991Z</time></trkpt><trkpt lat="45.6694418" lon="10.1609998"><ele>349.66666666666663</ele><time>2026-05-04T20:06:47.991Z</time></trkpt><trkpt lat="45.6693996" lon="10.1608404"><ele>347.3333333333333</ele><time>2026-05-04T20:06:48.991Z</time></trkpt><trkpt lat="45.6693738" lon="10.1606804"><ele>345.0</ele><time>2026-05-04T20:06:49.948Z</time></trkpt><trkpt lat="45.6692538" lon="10.1601155"><ele>345.0</ele><time>2026-05-04T20:06:52.959Z</time></trkpt><trkpt lat="45.6692267" lon="10.1599403"><ele>345.0</ele><time>2026-05-04T20:06:53.983Z</time></trkpt><trkpt lat="45.6691914" lon="10.1597676"><ele>345.0</ele><time>2026-05-04T20:06:54.999Z</time></trkpt><trkpt lat="45.6691403" lon="10.1595514"><ele>345.0</ele><time>2026-05-04T20:06:56.006Z</time></trkpt><trkpt lat="45.6690905" lon="10.1593512"><ele>345.5</ele><time>2026-05-04T20:06:56.907Z</time></trkpt><trkpt lat="45.669045" lon="10.1591512"><ele>346.0</ele><time>2026-05-04T20:06:57.898Z</time></trkpt><trkpt lat="45.6690003" lon="10.1589507"><ele>346.5</ele><time>2026-05-04T20:06:58.898Z</time></trkpt><trkpt lat="45.6689578" lon="10.1587424"><ele>347.0</ele><time>2026-05-04T20:06:59.898Z</time></trkpt><trkpt lat="45.6689146" lon="10.1585333"><ele>350.33333333333337</ele><time>2026-05-04T20:07:00.898Z</time></trkpt><trkpt lat="45.6688778" lon="10.1583154"><ele>353.6666666666667</ele><time>2026-05-04T20:07:01.897Z</time></trkpt><trkpt lat="45.6688362" lon="10.1581158"><ele>357.0</ele><time>2026-05-04T20:07:02.898Z</time></trkpt><trkpt lat="45.6687838" lon="10.1578961"><ele>362.3333333333333</ele><time>2026-05-04T20:07:03.898Z</time></trkpt><trkpt lat="45.6687425" lon="10.1576747"><ele>367.66666666666663</ele><time>2026-05-04T20:07:04.898Z</time></trkpt><trkpt lat="45.6686926" lon="10.1574608"><ele>373.0</ele><time>2026-05-04T20:07:05.898Z</time></trkpt><trkpt lat="45.6686577" lon="10.1572637"><ele>375.25</ele><time>2026-05-04T20:07:06.898Z</time></trkpt><trkpt lat="45.6686222" lon="10.1570628"><ele>377.5</ele><time>2026-05-04T20:07:07.898Z</time></trkpt><trkpt lat="45.6685749" lon="10.1568594"><ele>379.75</ele><time>2026-05-04T20:07:08.898Z</time></trkpt><trkpt lat="45.6685301" lon="10.1566739"><ele>382.0</ele><time>2026-05-04T20:07:09.898Z</time></trkpt><trkpt lat="45.6684781" lon="10.156486"><ele>376.25</ele><time>2026-05-04T20:07:10.899Z</time></trkpt><trkpt lat="45.6684268" lon="10.1562929"><ele>370.5</ele><time>2026-05-04T20:07:11.898Z</time></trkpt><trkpt lat="45.6683733" lon="10.1561028"><ele>364.75</ele><time>2026-05-04T20:07:12.898Z</time></trkpt><trkpt lat="45.6683209" lon="10.1559101"><ele>359.0</ele><time>2026-05-04T20:07:13.898Z</time></trkpt><trkpt lat="45.6682699" lon="10.1557194"><ele>359.75</ele><time>2026-05-04T20:07:14.898Z</time></trkpt><trkpt lat="45.668216" lon="10.1555292"><ele>360.5</ele><time>2026-05-04T20:07:15.898Z</time></trkpt><trkpt lat="45.6681599" lon="10.1553307"><ele>361.25</ele><time>2026-05-04T20:07:16.898Z</time></trkpt><trkpt lat="45.6681025" lon="10.155137"><ele>362.0</ele><time>2026-05-04T20:07:17.898Z</time></trkpt><trkpt lat="45.6680496" lon="10.1549485"><ele>363.75</ele><time>2026-05-04T20:07:18.898Z</time></trkpt><trkpt lat="45.6679996" lon="10.1547664"><ele>365.5</ele><time>2026-05-04T20:07:19.898Z</time></trkpt><trkpt lat="45.6679521" lon="10.1545925"><ele>367.25</ele><time>2026-05-04T20:07:20.898Z</time></trkpt><trkpt lat="45.6678953" lon="10.1544134"><ele>369.0</ele><time>2026-05-04T20:07:21.899Z</time></trkpt><trkpt lat="45.6678439" lon="10.1542294"><ele>369.0</ele><time>2026-05-04T20:07:22.898Z</time></trkpt><trkpt lat="45.6677924" lon="10.1540467"><ele>369.0</ele><time>2026-05-04T20:07:23.898Z</time></trkpt><trkpt lat="45.6677336" lon="10.1538637"><ele>369.0</ele><time>2026-05-04T20:07:24.898Z</time></trkpt><trkpt lat="45.6676791" lon="10.1536815"><ele>369.0</ele><time>2026-05-04T20:07:25.898Z</time></trkpt><trkpt lat="45.6676253" lon="10.1535021"><ele>369.0</ele><time>2026-05-04T20:07:26.898Z</time></trkpt><trkpt lat="45.6675747" lon="10.1533465"><ele>369.0</ele><time>2026-05-04T20:07:27.898Z</time></trkpt><trkpt lat="45.6675228" lon="10.1531718"><ele>369.0</ele><time>2026-05-04T20:07:28.898Z</time></trkpt><trkpt lat="45.6675107" lon="10.1529441"><ele>369.0</ele><time>2026-05-04T20:07:29.898Z</time></trkpt><trkpt lat="45.6675398" lon="10.1527603"><ele>369.0</ele><time>2026-05-04T20:07:30.898Z</time></trkpt><trkpt lat="45.6675919" lon="10.1526247"><ele>369.0</ele><time>2026-05-04T20:07:31.898Z</time></trkpt><trkpt lat="45.6675999" lon="10.1524202"><ele>369.0</ele><time>2026-05-04T20:07:32.898Z</time></trkpt><trkpt lat="45.667614" lon="10.1522428"><ele>369.0</ele><time>2026-05-04T20:07:33.898Z</time></trkpt><trkpt lat="45.6676303" lon="10.15205"><ele>369.5</ele><time>2026-05-04T20:07:34.898Z</time></trkpt><trkpt lat="45.6676355" lon="10.1518664"><ele>370.0</ele><time>2026-05-04T20:07:35.898Z</time></trkpt><trkpt lat="45.6676471" lon="10.1516841"><ele>370.5</ele><time>2026-05-04T20:07:36.898Z</time></trkpt><trkpt lat="45.6676602" lon="10.1514924"><ele>371.0</ele><time>2026-05-04T20:07:37.898Z</time></trkpt><trkpt lat="45.6676715" lon="10.1513104"><ele>373.75</ele><time>2026-05-04T20:07:38.898Z</time></trkpt><trkpt lat="45.667692" lon="10.1511459"><ele>376.5</ele><time>2026-05-04T20:07:39.898Z</time></trkpt><trkpt lat="45.6677188" lon="10.1509672"><ele>379.25</ele><time>2026-05-04T20:07:40.898Z</time></trkpt><trkpt lat="45.6677526" lon="10.1507906"><ele>382.0</ele><time>2026-05-04T20:07:41.898Z</time></trkpt><trkpt lat="45.6677985" lon="10.1506192"><ele>382.0</ele><time>2026-05-04T20:07:42.898Z</time></trkpt><trkpt lat="45.6678515" lon="10.1504561"><ele>382.0</ele><time>2026-05-04T20:07:43.899Z</time></trkpt><trkpt lat="45.6679092" lon="10.1502992"><ele>382.0</ele><time>2026-05-04T20:07:44.898Z</time></trkpt><trkpt lat="45.6679779" lon="10.1501426"><ele>382.0</ele><time>2026-05-04T20:07:45.898Z</time></trkpt><trkpt lat="45.6680509" lon="10.1499912"><ele>383.0</ele><time>2026-05-04T20:07:46.898Z</time></trkpt><trkpt lat="45.6681281" lon="10.1498467"><ele>384.0</ele><time>2026-05-04T20:07:47.898Z</time></trkpt><trkpt lat="45.6682143" lon="10.1497129"><ele>385.0</ele><time>2026-05-04T20:07:48.898Z</time></trkpt><trkpt lat="45.6683066" lon="10.1495853"><ele>386.0</ele><time>2026-05-04T20:07:49.898Z</time></trkpt><trkpt lat="45.6684041" lon="10.1494755"><ele>386.0</ele><time>2026-05-04T20:07:50.898Z</time></trkpt><trkpt lat="45.6685006" lon="10.1493665"><ele>386.0</ele><time>2026-05-04T20:07:51.898Z</time></trkpt><trkpt lat="45.6685982" lon="10.1492383"><ele>386.0</ele><time>2026-05-04T20:07:52.898Z</time></trkpt><trkpt lat="45.6686979" lon="10.1491103"><ele>386.0</ele><time>2026-05-04T20:07:53.898Z</time></trkpt><trkpt lat="45.6687975" lon="10.1490234"><ele>387.0</ele><time>2026-05-04T20:07:54.898Z</time></trkpt><trkpt lat="45.6689172" lon="10.1489228"><ele>388.0</ele><time>2026-05-04T20:07:55.899Z</time></trkpt><trkpt lat="45.6690095" lon="10.1488027"><ele>389.0</ele><time>2026-05-04T20:07:56.898Z</time></trkpt><trkpt lat="45.6691099" lon="10.1487118"><ele>390.0</ele><time>2026-05-04T20:07:57.898Z</time></trkpt><trkpt lat="45.6691766" lon="10.1485508"><ele>390.0</ele><time>2026-05-04T20:07:58.898Z</time></trkpt><trkpt lat="45.6692342" lon="10.1483815"><ele>390.0</ele><time>2026-05-04T20:07:59.898Z</time></trkpt><trkpt lat="45.6692759" lon="10.1482079"><ele>390.0</ele><time>2026-05-04T20:08:00.898Z</time></trkpt><trkpt lat="45.6692924" lon="10.1480247"><ele>390.0</ele><time>2026-05-04T20:08:01.898Z</time></trkpt><trkpt lat="45.6693033" lon="10.1478453"><ele>391.0</ele><time>2026-05-04T20:08:02.899Z</time></trkpt><trkpt lat="45.6693085" lon="10.1476616"><ele>392.0</ele><time>2026-05-04T20:08:03.898Z</time></trkpt><trkpt lat="45.6692998" lon="10.1474755"><ele>393.0</ele><time>2026-05-04T20:08:04.898Z</time></trkpt><trkpt lat="45.6692671" lon="10.1472937"><ele>394.0</ele><time>2026-05-04T20:08:05.898Z</time></trkpt><trkpt lat="45.6692348" lon="10.147115"><ele>396.0</ele><time>2026-05-04T20:08:06.898Z</time></trkpt><trkpt lat="45.6691947" lon="10.1469349"><ele>398.0</ele><time>2026-05-04T20:08:07.898Z</time></trkpt><trkpt lat="45.6691398" lon="10.1467594"><ele>400.0</ele><time>2026-05-04T20:08:08.898Z</time></trkpt><trkpt lat="45.6690767" lon="10.1465978"><ele>402.0</ele><time>2026-05-04T20:08:09.899Z</time></trkpt><trkpt lat="45.6690123" lon="10.1464392"><ele>405.0</ele><time>2026-05-04T20:08:10.899Z</time></trkpt><trkpt lat="45.6689144" lon="10.1463132"><ele>408.0</ele><time>2026-05-04T20:08:11.898Z</time></trkpt><trkpt lat="45.6688146" lon="10.1461843"><ele>411.0</ele><time>2026-05-04T20:08:12.898Z</time></trkpt><trkpt lat="45.6687185" lon="10.1460499"><ele>414.0</ele><time>2026-05-04T20:08:13.898Z</time></trkpt><trkpt lat="45.6686401" lon="10.1458823"><ele>415.0</ele><time>2026-05-04T20:08:14.898Z</time></trkpt><trkpt lat="45.6685629" lon="10.1457199"><ele>416.0</ele><time>2026-05-04T20:08:15.898Z</time></trkpt><trkpt lat="45.6686262" lon="10.1456244"><ele>417.0</ele><time>2026-05-04T20:08:16.898Z</time></trkpt><trkpt lat="45.6686207" lon="10.1454336"><ele>418.0</ele><time>2026-05-04T20:08:17.898Z</time></trkpt><trkpt lat="45.668626" lon="10.145249"><ele>418.0</ele><time>2026-05-04T20:08:18.898Z</time></trkpt><trkpt lat="45.6686392" lon="10.1450752"><ele>418.0</ele><time>2026-05-04T20:08:19.898Z</time></trkpt><trkpt lat="45.6686545" lon="10.1449054"><ele>418.0</ele><time>2026-05-04T20:08:20.898Z</time></trkpt><trkpt lat="45.6686424" lon="10.1447425"><ele>418.0</ele><time>2026-05-04T20:08:21.898Z</time></trkpt><trkpt lat="45.6685889" lon="10.1445775"><ele>416.5</ele><time>2026-05-04T20:08:22.898Z</time></trkpt><trkpt lat="45.6685612" lon="10.1444132"><ele>415.0</ele><time>2026-05-04T20:08:23.898Z</time></trkpt><trkpt lat="45.6684915" lon="10.144276"><ele>413.5</ele><time>2026-05-04T20:08:24.898Z</time></trkpt><trkpt lat="45.6684226" lon="10.1441352"><ele>412.0</ele><time>2026-05-04T20:08:25.898Z</time></trkpt><trkpt lat="45.6683397" lon="10.1440198"><ele>414.6</ele><time>2026-05-04T20:08:26.898Z</time></trkpt><trkpt lat="45.6682718" lon="10.1438843"><ele>417.20000000000005</ele><time>2026-05-04T20:08:27.898Z</time></trkpt><trkpt lat="45.6681734" lon="10.1437414"><ele>419.8</ele><time>2026-05-04T20:08:28.898Z</time></trkpt><trkpt lat="45.6681004" lon="10.1436204"><ele>422.4</ele><time>2026-05-04T20:08:29.898Z</time></trkpt><trkpt lat="45.6680344" lon="10.1435592"><ele>425.0</ele><time>2026-05-04T20:08:30.898Z</time></trkpt><trkpt lat="45.6679581" lon="10.143422"><ele>425.0</ele><time>2026-05-04T20:08:31.898Z</time></trkpt><trkpt lat="45.6678771" lon="10.1433096"><ele>425.0</ele><time>2026-05-04T20:08:32.898Z</time></trkpt><trkpt lat="45.6677919" lon="10.1431853"><ele>425.0</ele><time>2026-05-04T20:08:33.898Z</time></trkpt><trkpt lat="45.667704" lon="10.1430587"><ele>425.0</ele><time>2026-05-04T20:08:34.898Z</time></trkpt><trkpt lat="45.6676196" lon="10.1429409"><ele>424.75</ele><time>2026-05-04T20:08:35.898Z</time></trkpt><trkpt lat="45.6675322" lon="10.1428273"><ele>424.5</ele><time>2026-05-04T20:08:36.898Z</time></trkpt><trkpt lat="45.6674641" lon="10.1426727"><ele>424.25</ele><time>2026-05-04T20:08:37.898Z</time></trkpt><trkpt lat="45.6673844" lon="10.1425403"><ele>424.0</ele><time>2026-05-04T20:08:38.898Z</time></trkpt><trkpt lat="45.6673891" lon="10.142393"><ele>425.25</ele><time>2026-05-04T20:08:39.899Z</time></trkpt><trkpt lat="45.6673318" lon="10.1422504"><ele>426.5</ele><time>2026-05-04T20:08:40.899Z</time></trkpt><trkpt lat="45.6672765" lon="10.1420967"><ele>427.75</ele><time>2026-05-04T20:08:41.898Z</time></trkpt><trkpt lat="45.6672155" lon="10.1419462"><ele>429.0</ele><time>2026-05-04T20:08:42.898Z</time></trkpt><trkpt lat="45.6671493" lon="10.1418088"><ele>429.0</ele><time>2026-05-04T20:08:43.898Z</time></trkpt><trkpt lat="45.6670682" lon="10.1416679"><ele>429.0</ele><time>2026-05-04T20:08:44.898Z</time></trkpt><trkpt lat="45.6670036" lon="10.1415333"><ele>429.0</ele><time>2026-05-04T20:08:45.898Z</time></trkpt><trkpt lat="45.6669294" lon="10.1413823"><ele>429.0</ele><time>2026-05-04T20:08:46.898Z</time></trkpt><trkpt lat="45.6668542" lon="10.1412474"><ele>428.5</ele><time>2026-05-04T20:08:47.898Z</time></trkpt><trkpt lat="45.6667778" lon="10.1411164"><ele>428.0</ele><time>2026-05-04T20:08:48.898Z</time></trkpt><trkpt lat="45.6667058" lon="10.1409913"><ele>427.5</ele><time>2026-05-04T20:08:49.898Z</time></trkpt><trkpt lat="45.6666362" lon="10.1408627"><ele>427.0</ele><time>2026-05-04T20:08:50.898Z</time></trkpt><trkpt lat="45.6665678" lon="10.1407308"><ele>430.40000000000003</ele><time>2026-05-04T20:08:51.898Z</time></trkpt><trkpt lat="45.6664901" lon="10.1406218"><ele>433.80000000000007</ele><time>2026-05-04T20:08:52.898Z</time></trkpt><trkpt lat="45.6664015" lon="10.1405097"><ele>437.2</ele><time>2026-05-04T20:08:53.898Z</time></trkpt><trkpt lat="45.6663218" lon="10.1404074"><ele>440.6</ele><time>2026-05-04T20:08:54.898Z</time></trkpt><trkpt lat="45.6662394" lon="10.1403107"><ele>444.0</ele><time>2026-05-04T20:08:55.898Z</time></trkpt><trkpt lat="45.666155" lon="10.1402069"><ele>444.79999999999995</ele><time>2026-05-04T20:08:56.898Z</time></trkpt><trkpt lat="45.6660671" lon="10.1401108"><ele>445.59999999999997</ele><time>2026-05-04T20:08:57.898Z</time></trkpt><trkpt lat="45.6659756" lon="10.1400061"><ele>446.4</ele><time>2026-05-04T20:08:58.898Z</time></trkpt><trkpt lat="45.6658918" lon="10.1399042"><ele>447.2</ele><time>2026-05-04T20:08:59.898Z</time></trkpt><trkpt lat="45.6658063" lon="10.1398014"><ele>448.0</ele><time>2026-05-04T20:09:00.899Z</time></trkpt><trkpt lat="45.6657178" lon="10.1397001"><ele>448.0</ele><time>2026-05-04T20:09:01.898Z</time></trkpt><trkpt lat="45.6656329" lon="10.1395943"><ele>448.0</ele><time>2026-05-04T20:09:02.899Z</time></trkpt><trkpt lat="45.6655444" lon="10.1394824"><ele>448.0</ele><time>2026-05-04T20:09:03.898Z</time></trkpt><trkpt lat="45.6654713" lon="10.1393722"><ele>448.0</ele><time>2026-05-04T20:09:04.898Z</time></trkpt><trkpt lat="45.6653864" lon="10.1392619"><ele>448.0</ele><time>2026-05-04T20:09:05.898Z</time></trkpt><trkpt lat="45.6653077" lon="10.1391543"><ele>447.99999999999994</ele><time>2026-05-04T20:09:06.898Z</time></trkpt><trkpt lat="45.6652259" lon="10.1390447"><ele>447.99999999999994</ele><time>2026-05-04T20:09:07.898Z</time></trkpt><trkpt lat="45.6651489" lon="10.1389284"><ele>448.0</ele><time>2026-05-04T20:09:08.898Z</time></trkpt><trkpt lat="45.6650732" lon="10.138814"><ele>448.0</ele><time>2026-05-04T20:09:09.898Z</time></trkpt><trkpt lat="45.6650024" lon="10.1387099"><ele>449.5</ele><time>2026-05-04T20:09:10.898Z</time></trkpt><trkpt lat="45.6649059" lon="10.138596"><ele>451.0</ele><time>2026-05-04T20:09:11.898Z</time></trkpt><trkpt lat="45.664841" lon="10.1384874"><ele>452.5</ele><time>2026-05-04T20:09:12.898Z</time></trkpt><trkpt lat="45.6647407" lon="10.1383768"><ele>454.0</ele><time>2026-05-04T20:09:13.899Z</time></trkpt><trkpt lat="45.6646601" lon="10.1382733"><ele>453.0</ele><time>2026-05-04T20:09:14.899Z</time></trkpt><trkpt lat="45.6645865" lon="10.1381637"><ele>452.0</ele><time>2026-05-04T20:09:15.898Z</time></trkpt><trkpt lat="45.6645275" lon="10.1380381"><ele>451.0</ele><time>2026-05-04T20:09:16.898Z</time></trkpt><trkpt lat="45.664469" lon="10.1378987"><ele>450.0</ele><time>2026-05-04T20:09:17.898Z</time></trkpt><trkpt lat="45.6644375" lon="10.1377679"><ele>449.0</ele><time>2026-05-04T20:09:18.898Z</time></trkpt><trkpt lat="45.6644187" lon="10.1376262"><ele>449.0</ele><time>2026-05-04T20:09:19.898Z</time></trkpt><trkpt lat="45.6644032" lon="10.1374784"><ele>449.0</ele><time>2026-05-04T20:09:20.898Z</time></trkpt><trkpt lat="45.6643803" lon="10.1373341"><ele>449.0</ele><time>2026-05-04T20:09:21.898Z</time></trkpt><trkpt lat="45.6643602" lon="10.1371699"><ele>449.0</ele><time>2026-05-04T20:09:22.898Z</time></trkpt><trkpt lat="45.6643651" lon="10.1370228"><ele>449.0</ele><time>2026-05-04T20:09:23.898Z</time></trkpt><trkpt lat="45.6643713" lon="10.1368692"><ele>450.2</ele><time>2026-05-04T20:09:24.898Z</time></trkpt><trkpt lat="45.6643909" lon="10.1367285"><ele>451.4</ele><time>2026-05-04T20:09:25.898Z</time></trkpt><trkpt lat="45.6644121" lon="10.1365917"><ele>452.6</ele><time>2026-05-04T20:09:26.898Z</time></trkpt><trkpt lat="45.6644281" lon="10.1364487"><ele>453.8</ele><time>2026-05-04T20:09:27.898Z</time></trkpt><trkpt lat="45.6644498" lon="10.1363056"><ele>455.0</ele><time>2026-05-04T20:09:28.898Z</time></trkpt><trkpt lat="45.6644617" lon="10.1361582"><ele>463.2</ele><time>2026-05-04T20:09:29.898Z</time></trkpt><trkpt lat="45.6644754" lon="10.1360248"><ele>471.4</ele><time>2026-05-04T20:09:30.898Z</time></trkpt><trkpt lat="45.6644713" lon="10.1358919"><ele>479.6</ele><time>2026-05-04T20:09:31.898Z</time></trkpt><trkpt lat="45.6644624" lon="10.135764"><ele>487.8</ele><time>2026-05-04T20:09:32.898Z</time></trkpt><trkpt lat="45.6644557" lon="10.1356304"><ele>496.0</ele><time>2026-05-04T20:09:33.899Z</time></trkpt><trkpt lat="45.664448" lon="10.1355013"><ele>491.0</ele><time>2026-05-04T20:09:34.898Z</time></trkpt><trkpt lat="45.664443" lon="10.1353695"><ele>486.0</ele><time>2026-05-04T20:09:35.899Z</time></trkpt><trkpt lat="45.6644392" lon="10.1352425"><ele>481.0</ele><time>2026-05-04T20:09:36.898Z</time></trkpt><trkpt lat="45.6644254" lon="10.1350943"><ele>476.0</ele><time>2026-05-04T20:09:37.898Z</time></trkpt><trkpt lat="45.6644199" lon="10.1349601"><ele>471.0</ele><time>2026-05-04T20:09:38.898Z</time></trkpt><trkpt lat="45.6644056" lon="10.1347998"><ele>471.0</ele><time>2026-05-04T20:09:39.898Z</time></trkpt><trkpt lat="45.6643631" lon="10.1345902"><ele>471.0</ele><time>2026-05-04T20:09:40.898Z</time></trkpt><trkpt lat="45.664351" lon="10.1344361"><ele>471.0</ele><time>2026-05-04T20:09:41.898Z</time></trkpt><trkpt lat="45.6643615" lon="10.1342876"><ele>471.0</ele><time>2026-05-04T20:09:42.898Z</time></trkpt><trkpt lat="45.6644187" lon="10.1341618"><ele>472.4</ele><time>2026-05-04T20:09:43.899Z</time></trkpt><trkpt lat="45.6644553" lon="10.1340208"><ele>473.8</ele><time>2026-05-04T20:09:44.898Z</time></trkpt><trkpt lat="45.6644808" lon="10.1338792"><ele>475.19999999999993</ele><time>2026-05-04T20:09:45.898Z</time></trkpt><trkpt lat="45.6644636" lon="10.1337284"><ele>476.59999999999997</ele><time>2026-05-04T20:09:46.898Z</time></trkpt><trkpt lat="45.6644294" lon="10.1335972"><ele>478.0</ele><time>2026-05-04T20:09:47.898Z</time></trkpt><trkpt lat="45.6643965" lon="10.1334222"><ele>478.0</ele><time>2026-05-04T20:09:48.898Z</time></trkpt><trkpt lat="45.6642841" lon="10.1333735"><ele>477.99999999999994</ele><time>2026-05-04T20:09:49.898Z</time></trkpt><trkpt lat="45.6642091" lon="10.1332656"><ele>477.99999999999994</ele><time>2026-05-04T20:09:50.898Z</time></trkpt><trkpt lat="45.6641279" lon="10.1331766"><ele>478.0</ele><time>2026-05-04T20:09:51.898Z</time></trkpt><trkpt lat="45.664055" lon="10.1330584"><ele>478.0</ele><time>2026-05-04T20:09:52.899Z</time></trkpt><trkpt lat="45.664018" lon="10.1329488"><ele>480.59999999999997</ele><time>2026-05-04T20:09:53.898Z</time></trkpt><trkpt lat="45.664008" lon="10.1328112"><ele>483.19999999999993</ele><time>2026-05-04T20:09:54.898Z</time></trkpt><trkpt lat="45.6640076" lon="10.1326974"><ele>485.8</ele><time>2026-05-04T20:09:55.898Z</time></trkpt><trkpt lat="45.664124" lon="10.132605"><ele>488.4</ele><time>2026-05-04T20:09:56.898Z</time></trkpt><trkpt lat="45.6641757" lon="10.1325017"><ele>491.0</ele><time>2026-05-04T20:09:57.898Z</time></trkpt><trkpt lat="45.664231" lon="10.1323672"><ele>492.25</ele><time>2026-05-04T20:09:58.898Z</time></trkpt><trkpt lat="45.664256" lon="10.1322428"><ele>493.5</ele><time>2026-05-04T20:09:59.898Z</time></trkpt><trkpt lat="45.6642936" lon="10.1319219"><ele>494.75</ele><time>2026-05-04T20:10:01.898Z</time></trkpt><trkpt lat="45.6642951" lon="10.1317495"><ele>496.0</ele><time>2026-05-04T20:10:02.898Z</time></trkpt><trkpt lat="45.6642866" lon="10.1315927"><ele>498.5</ele><time>2026-05-04T20:10:03.898Z</time></trkpt><trkpt lat="45.6642747" lon="10.1314366"><ele>501.0</ele><time>2026-05-04T20:10:04.899Z</time></trkpt><trkpt lat="45.6642313" lon="10.1312885"><ele>503.5</ele><time>2026-05-04T20:10:05.898Z</time></trkpt><trkpt lat="45.6642018" lon="10.1311328"><ele>506.0</ele><time>2026-05-04T20:10:06.898Z</time></trkpt><trkpt lat="45.6641327" lon="10.1309915"><ele>506.0</ele><time>2026-05-04T20:10:07.898Z</time></trkpt><trkpt lat="45.6640766" lon="10.1308533"><ele>506.0</ele><time>2026-05-04T20:10:08.898Z</time></trkpt><trkpt lat="45.6640168" lon="10.1307147"><ele>506.0</ele><time>2026-05-04T20:10:09.898Z</time></trkpt><trkpt lat="45.6639539" lon="10.130572"><ele>506.0</ele><time>2026-05-04T20:10:10.898Z</time></trkpt><trkpt lat="45.6638961" lon="10.1304323"><ele>512.25</ele><time>2026-05-04T20:10:11.898Z</time></trkpt><trkpt lat="45.663834" lon="10.1303031"><ele>518.5</ele><time>2026-05-04T20:10:12.898Z</time></trkpt><trkpt lat="45.6637792" lon="10.1301604"><ele>524.75</ele><time>2026-05-04T20:10:13.898Z</time></trkpt><trkpt lat="45.6637188" lon="10.1300218"><ele>531.0</ele><time>2026-05-04T20:10:14.898Z</time></trkpt><trkpt lat="45.6636676" lon="10.1298746"><ele>528.0</ele><time>2026-05-04T20:10:15.898Z</time></trkpt><trkpt lat="45.6636107" lon="10.1297342"><ele>525.0</ele><time>2026-05-04T20:10:16.898Z</time></trkpt><trkpt lat="45.6635584" lon="10.1296021"><ele>522.0</ele><time>2026-05-04T20:10:17.898Z</time></trkpt><trkpt lat="45.6635015" lon="10.12948"><ele>519.0</ele><time>2026-05-04T20:10:18.898Z</time></trkpt><trkpt lat="45.6634309" lon="10.1293757"><ele>516.0</ele><time>2026-05-04T20:10:19.898Z</time></trkpt><trkpt lat="45.663343" lon="10.1292985"><ele>516.0</ele><time>2026-05-04T20:10:20.898Z</time></trkpt><trkpt lat="45.6632512" lon="10.1292297"><ele>516.0</ele><time>2026-05-04T20:10:21.898Z</time></trkpt><trkpt lat="45.6631509" lon="10.1291536"><ele>516.0</ele><time>2026-05-04T20:10:22.898Z</time></trkpt><trkpt lat="45.6630494" lon="10.1291378"><ele>516.0</ele><time>2026-05-04T20:10:23.898Z</time></trkpt><trkpt lat="45.6629507" lon="10.1290972"><ele>516.0</ele><time>2026-05-04T20:10:24.898Z</time></trkpt><trkpt lat="45.662818" lon="10.1291018"><ele>513.75</ele><time>2026-05-04T20:10:25.898Z</time></trkpt><trkpt lat="45.6626909" lon="10.1290786"><ele>511.5</ele><time>2026-05-04T20:10:26.898Z</time></trkpt><trkpt lat="45.6625824" lon="10.1290531"><ele>509.25</ele><time>2026-05-04T20:10:27.899Z</time></trkpt><trkpt lat="45.6624629" lon="10.1290149"><ele>507.0</ele><time>2026-05-04T20:10:28.899Z</time></trkpt><trkpt lat="45.6623486" lon="10.1289812"><ele>513.5</ele><time>2026-05-04T20:10:29.898Z</time></trkpt><trkpt lat="45.6622427" lon="10.128951"><ele>520.0</ele><time>2026-05-04T20:10:30.898Z</time></trkpt><trkpt lat="45.6621264" lon="10.1289086"><ele>526.5</ele><time>2026-05-04T20:10:31.898Z</time></trkpt><trkpt lat="45.6620105" lon="10.1288707"><ele>533.0</ele><time>2026-05-04T20:10:32.898Z</time></trkpt><trkpt lat="45.6619027" lon="10.1288352"><ele>533.0</ele><time>2026-05-04T20:10:33.898Z</time></trkpt><trkpt lat="45.6617927" lon="10.128783"><ele>533.0</ele><time>2026-05-04T20:10:34.898Z</time></trkpt><trkpt lat="45.6616936" lon="10.1287189"><ele>533.0</ele><time>2026-05-04T20:10:35.898Z</time></trkpt><trkpt lat="45.6615906" lon="10.1286596"><ele>533.0</ele><time>2026-05-04T20:10:36.898Z</time></trkpt><trkpt lat="45.6614871" lon="10.1285688"><ele>533.0</ele><time>2026-05-04T20:10:37.898Z</time></trkpt><trkpt lat="45.6614004" lon="10.1284647"><ele>533.0</ele><time>2026-05-04T20:10:38.898Z</time></trkpt><trkpt lat="45.6613283" lon="10.1283328"><ele>533.0</ele><time>2026-05-04T20:10:39.898Z</time></trkpt><trkpt lat="45.6612463" lon="10.1281916"><ele>533.0</ele><time>2026-05-04T20:10:40.898Z</time></trkpt><trkpt lat="45.6611781" lon="10.1280547"><ele>531.0</ele><time>2026-05-04T20:10:41.898Z</time></trkpt><trkpt lat="45.6611068" lon="10.1279227"><ele>529.0</ele><time>2026-05-04T20:10:42.898Z</time></trkpt><trkpt lat="45.6610312" lon="10.1277517"><ele>527.0</ele><time>2026-05-04T20:10:43.898Z</time></trkpt><trkpt lat="45.6609603" lon="10.1275907"><ele>525.0</ele><time>2026-05-04T20:10:44.898Z</time></trkpt><trkpt lat="45.6608493" lon="10.1275568"><ele>525.0</ele><time>2026-05-04T20:10:45.898Z</time></trkpt><trkpt lat="45.6607675" lon="10.1274335"><ele>525.0</ele><time>2026-05-04T20:10:46.898Z</time></trkpt><trkpt lat="45.6606373" lon="10.1273749"><ele>525.0</ele><time>2026-05-04T20:10:47.898Z</time></trkpt><trkpt lat="45.6605401" lon="10.1272913"><ele>525.0</ele><time>2026-05-04T20:10:48.898Z</time></trkpt><trkpt lat="45.6603659" lon="10.1273975"><ele>524.75</ele><time>2026-05-04T20:10:49.898Z</time></trkpt><trkpt lat="45.6602335" lon="10.127452"><ele>524.5</ele><time>2026-05-04T20:10:50.898Z</time></trkpt><trkpt lat="45.6601136" lon="10.127542"><ele>524.25</ele><time>2026-05-04T20:10:51.898Z</time></trkpt><trkpt lat="45.6599823" lon="10.1276767"><ele>524.0</ele><time>2026-05-04T20:10:52.898Z</time></trkpt><trkpt lat="45.6598337" lon="10.1277991"><ele>524.0</ele><time>2026-05-04T20:10:53.898Z</time></trkpt><trkpt lat="45.659724" lon="10.1278613"><ele>524.0</ele><time>2026-05-04T20:10:54.898Z</time></trkpt><trkpt lat="45.6596204" lon="10.1279127"><ele>524.0</ele><time>2026-05-04T20:10:55.898Z</time></trkpt><trkpt lat="45.659515" lon="10.1279625"><ele>524.0</ele><time>2026-05-04T20:10:56.898Z</time></trkpt><trkpt lat="45.6594104" lon="10.1280234"><ele>521.8</ele><time>2026-05-04T20:10:57.899Z</time></trkpt><trkpt lat="45.6593148" lon="10.128066"><ele>519.5999999999999</ele><time>2026-05-04T20:10:58.899Z</time></trkpt><trkpt lat="45.6592147" lon="10.1280866"><ele>517.4</ele><time>2026-05-04T20:10:59.898Z</time></trkpt><trkpt lat="45.6591045" lon="10.1281038"><ele>515.1999999999999</ele><time>2026-05-04T20:11:00.898Z</time></trkpt><trkpt lat="45.6589979" lon="10.1281074"><ele>513.0</ele><time>2026-05-04T20:11:01.898Z</time></trkpt><trkpt lat="45.6588846" lon="10.1280836"><ele>513.0</ele><time>2026-05-04T20:11:02.898Z</time></trkpt><trkpt lat="45.6587796" lon="10.1280791"><ele>513.0</ele><time>2026-05-04T20:11:03.898Z</time></trkpt><trkpt lat="45.658669" lon="10.1280782"><ele>513.0</ele><time>2026-05-04T20:11:04.898Z</time></trkpt><trkpt lat="45.6585498" lon="10.1280817"><ele>513.0</ele><time>2026-05-04T20:11:05.898Z</time></trkpt><trkpt lat="45.6584432" lon="10.1280949"><ele>513.0</ele><time>2026-05-04T20:11:06.898Z</time></trkpt><trkpt lat="45.6583306" lon="10.1280999"><ele>512.1999999999999</ele><time>2026-05-04T20:11:07.898Z</time></trkpt><trkpt lat="45.6582205" lon="10.1280836"><ele>511.4</ele><time>2026-05-04T20:11:08.898Z</time></trkpt><trkpt lat="45.6581154" lon="10.1280641"><ele>510.59999999999997</ele><time>2026-05-04T20:11:09.898Z</time></trkpt><trkpt lat="45.6580158" lon="10.1280384"><ele>509.79999999999995</ele><time>2026-05-04T20:11:10.898Z</time></trkpt><trkpt lat="45.6579182" lon="10.1280262"><ele>509.0</ele><time>2026-05-04T20:11:11.898Z</time></trkpt><trkpt lat="45.6578266" lon="10.1280704"><ele>508.79999999999995</ele><time>2026-05-04T20:11:12.898Z</time></trkpt><trkpt lat="45.6577431" lon="10.1281383"><ele>508.59999999999997</ele><time>2026-05-04T20:11:13.898Z</time></trkpt><trkpt lat="45.657674" lon="10.1282285"><ele>508.4</ele><time>2026-05-04T20:11:14.898Z</time></trkpt><trkpt lat="45.6576192" lon="10.1283426"><ele>508.2</ele><time>2026-05-04T20:11:15.898Z</time></trkpt><trkpt lat="45.657589" lon="10.1284654"><ele>508.0</ele><time>2026-05-04T20:11:16.898Z</time></trkpt><trkpt lat="45.6575533" lon="10.1285945"><ele>507.59999999999997</ele><time>2026-05-04T20:11:17.898Z</time></trkpt><trkpt lat="45.6575189" lon="10.1287267"><ele>507.19999999999993</ele><time>2026-05-04T20:11:18.898Z</time></trkpt><trkpt lat="45.6574915" lon="10.128866"><ele>506.8</ele><time>2026-05-04T20:11:19.898Z</time></trkpt><trkpt lat="45.6574717" lon="10.1290013"><ele>506.4</ele><time>2026-05-04T20:11:20.898Z</time></trkpt><trkpt lat="45.6574259" lon="10.1291298"><ele>506.0</ele><time>2026-05-04T20:11:21.898Z</time></trkpt><trkpt lat="45.6573827" lon="10.1292662"><ele>507.20000000000005</ele><time>2026-05-04T20:11:22.899Z</time></trkpt><trkpt lat="45.6573416" lon="10.1293956"><ele>508.40000000000003</ele><time>2026-05-04T20:11:23.898Z</time></trkpt><trkpt lat="45.6572942" lon="10.129526"><ele>509.6</ele><time>2026-05-04T20:11:24.898Z</time></trkpt><trkpt lat="45.6572458" lon="10.1296557"><ele>510.8</ele><time>2026-05-04T20:11:25.898Z</time></trkpt><trkpt lat="45.6572135" lon="10.1297832"><ele>512.0</ele><time>2026-05-04T20:11:26.898Z</time></trkpt><trkpt lat="45.6571724" lon="10.1299084"><ele>513.1666666666666</ele><time>2026-05-04T20:11:27.898Z</time></trkpt><trkpt lat="45.6571368" lon="10.1300084"><ele>514.3333333333333</ele><time>2026-05-04T20:11:28.899Z</time></trkpt><trkpt lat="45.6571047" lon="10.1301265"><ele>515.5</ele><time>2026-05-04T20:11:29.898Z</time></trkpt><trkpt lat="45.6571381" lon="10.1302286"><ele>516.6666666666666</ele><time>2026-05-04T20:11:30.898Z</time></trkpt><trkpt lat="45.6571664" lon="10.1303114"><ele>517.8333333333334</ele><time>2026-05-04T20:11:31.898Z</time></trkpt><trkpt lat="45.6571949" lon="10.1304011"><ele>519.0</ele><time>2026-05-04T20:11:32.898Z</time></trkpt><trkpt lat="45.6572783" lon="10.1304077"><ele>519.0</ele><time>2026-05-04T20:11:33.898Z</time></trkpt><trkpt lat="45.6573551" lon="10.1303591"><ele>519.0</ele><time>2026-05-04T20:11:34.898Z</time></trkpt><trkpt lat="45.6574214" lon="10.1303134"><ele>519.0</ele><time>2026-05-04T20:11:35.898Z</time></trkpt><trkpt lat="45.6574925" lon="10.1303061"><ele>519.0</ele><time>2026-05-04T20:11:36.899Z</time></trkpt><trkpt lat="45.6575652" lon="10.1302389"><ele>519.0</ele><time>2026-05-04T20:11:37.898Z</time></trkpt><trkpt lat="45.6576566" lon="10.1301629"><ele>519.0</ele><time>2026-05-04T20:11:38.898Z</time></trkpt><trkpt lat="45.6577195" lon="10.1300831"><ele>520.75</ele><time>2026-05-04T20:11:39.898Z</time></trkpt><trkpt lat="45.6578452" lon="10.1298706"><ele>522.5</ele><time>2026-05-04T20:11:40.898Z</time></trkpt><trkpt lat="45.6579065" lon="10.1297731"><ele>524.25</ele><time>2026-05-04T20:11:41.898Z</time></trkpt><trkpt lat="45.6579705" lon="10.1297013"><ele>526.0</ele><time>2026-05-04T20:11:42.898Z</time></trkpt><trkpt lat="45.6580473" lon="10.1295972"><ele>526.0</ele><time>2026-05-04T20:11:43.898Z</time></trkpt><trkpt lat="45.6581119" lon="10.1296042"><ele>526.0</ele><time>2026-05-04T20:11:44.898Z</time></trkpt><trkpt lat="45.6580844" lon="10.1297598"><ele>526.0</ele><time>2026-05-04T20:11:46.898Z</time></trkpt><trkpt lat="45.6580396" lon="10.1298593"><ele>526.0</ele><time>2026-05-04T20:11:47.898Z</time></trkpt><trkpt lat="45.6580204" lon="10.1300435"><ele>526.0</ele><time>2026-05-04T20:11:49.898Z</time></trkpt><trkpt lat="45.6580103" lon="10.1301624"><ele>528.25</ele><time>2026-05-04T20:11:50.898Z</time></trkpt><trkpt lat="45.6580127" lon="10.1304327"><ele>530.5</ele><time>2026-05-04T20:11:52.996Z</time></trkpt><trkpt lat="45.6580072" lon="10.1305665"><ele>532.75</ele><time>2026-05-04T20:11:53.909Z</time></trkpt><trkpt lat="45.6580297" lon="10.1306954"><ele>535.0</ele><time>2026-05-04T20:11:55.012Z</time></trkpt><trkpt lat="45.6580422" lon="10.1309516"><ele>536.8</ele><time>2026-05-04T20:11:56.986Z</time></trkpt><trkpt lat="45.6580475" lon="10.1311187"><ele>538.6</ele><time>2026-05-04T20:11:57.997Z</time></trkpt><trkpt lat="45.6580346" lon="10.131275"><ele>540.4</ele><time>2026-05-04T20:11:58.996Z</time></trkpt><trkpt lat="45.6580266" lon="10.1314288"><ele>542.2</ele><time>2026-05-04T20:11:59.996Z</time></trkpt><trkpt lat="45.6580001" lon="10.1315865"><ele>544.0</ele><time>2026-05-04T20:12:00.996Z</time></trkpt><trkpt lat="45.6579679" lon="10.1317434"><ele>546.0</ele><time>2026-05-04T20:12:01.972Z</time></trkpt><trkpt lat="45.6579204" lon="10.1319035"><ele>548.0</ele><time>2026-05-04T20:12:02.945Z</time></trkpt><trkpt lat="45.6578709" lon="10.1320453"><ele>550.0</ele><time>2026-05-04T20:12:03.996Z</time></trkpt><trkpt lat="45.6578324" lon="10.1322054"><ele>552.0</ele><time>2026-05-04T20:12:04.996Z</time></trkpt><trkpt lat="45.6577961" lon="10.1323588"><ele>547.75</ele><time>2026-05-04T20:12:05.996Z</time></trkpt><trkpt lat="45.6577664" lon="10.1325172"><ele>543.5</ele><time>2026-05-04T20:12:06.996Z</time></trkpt><trkpt lat="45.6577515" lon="10.1326766"><ele>539.25</ele><time>2026-05-04T20:12:07.996Z</time></trkpt><trkpt lat="45.657716" lon="10.132847"><ele>535.0</ele><time>2026-05-04T20:12:08.997Z</time></trkpt><trkpt lat="45.6576823" lon="10.1330184"><ele>535.0</ele><time>2026-05-04T20:12:09.996Z</time></trkpt><trkpt lat="45.6576514" lon="10.1331714"><ele>535.0</ele><time>2026-05-04T20:12:10.996Z</time></trkpt><trkpt lat="45.6576357" lon="10.1333126"><ele>535.0</ele><time>2026-05-04T20:12:11.996Z</time></trkpt><trkpt lat="45.6576147" lon="10.1334562"><ele>535.0</ele><time>2026-05-04T20:12:12.996Z</time></trkpt><trkpt lat="45.657588" lon="10.1336021"><ele>535.0</ele><time>2026-05-04T20:12:13.996Z</time></trkpt><trkpt lat="45.657543" lon="10.1337833"><ele>536.6</ele><time>2026-05-04T20:12:14.996Z</time></trkpt><trkpt lat="45.6575188" lon="10.1339388"><ele>538.2</ele><time>2026-05-04T20:12:15.996Z</time></trkpt><trkpt lat="45.6575025" lon="10.1341053"><ele>539.8</ele><time>2026-05-04T20:12:16.996Z</time></trkpt><trkpt lat="45.6574726" lon="10.1342585"><ele>541.4</ele><time>2026-05-04T20:12:17.996Z</time></trkpt><trkpt lat="45.6574466" lon="10.1343961"><ele>543.0</ele><time>2026-05-04T20:12:18.996Z</time></trkpt><trkpt lat="45.6574084" lon="10.1345362"><ele>544.6666666666666</ele><time>2026-05-04T20:12:19.996Z</time></trkpt><trkpt lat="45.6573684" lon="10.1346407"><ele>546.3333333333334</ele><time>2026-05-04T20:12:20.996Z</time></trkpt><trkpt lat="45.6573114" lon="10.1347384"><ele>548.0</ele><time>2026-05-04T20:12:21.947Z</time></trkpt><trkpt lat="45.6572412" lon="10.1348194"><ele>549.6666666666667</ele><time>2026-05-04T20:12:22.952Z</time></trkpt><trkpt lat="45.6571759" lon="10.1348942"><ele>551.3333333333334</ele><time>2026-05-04T20:12:23.939Z</time></trkpt><trkpt lat="45.657083" lon="10.1349155"><ele>553.0</ele><time>2026-05-04T20:12:24.996Z</time></trkpt><trkpt lat="45.6569644" lon="10.1349101"><ele>552.6666666666667</ele><time>2026-05-04T20:12:25.996Z</time></trkpt><trkpt lat="45.6568882" lon="10.1349217"><ele>552.3333333333334</ele><time>2026-05-04T20:12:26.996Z</time></trkpt><trkpt lat="45.6567892" lon="10.1349319"><ele>552.0</ele><time>2026-05-04T20:12:27.996Z</time></trkpt><trkpt lat="45.6567037" lon="10.1349273"><ele>551.6666666666666</ele><time>2026-05-04T20:12:28.939Z</time></trkpt><trkpt lat="45.6566107" lon="10.1349558"><ele>551.3333333333333</ele><time>2026-05-04T20:12:29.996Z</time></trkpt><trkpt lat="45.6565841" lon="10.1350723"><ele>551.0</ele><time>2026-05-04T20:12:30.949Z</time></trkpt><trkpt lat="45.6565392" lon="10.1351731"><ele>551.0</ele><time>2026-05-04T20:12:31.996Z</time></trkpt><trkpt lat="45.6565183" lon="10.1352849"><ele>551.0</ele><time>2026-05-04T20:12:32.996Z</time></trkpt><trkpt lat="45.6564889" lon="10.1353957"><ele>551.0</ele><time>2026-05-04T20:12:33.996Z</time></trkpt><trkpt lat="45.6564466" lon="10.1355129"><ele>551.0</ele><time>2026-05-04T20:12:34.996Z</time></trkpt><trkpt lat="45.6563974" lon="10.1356103"><ele>551.0</ele><time>2026-05-04T20:12:35.996Z</time></trkpt><trkpt lat="45.6563422" lon="10.1357217"><ele>551.0</ele><time>2026-05-04T20:12:36.996Z</time></trkpt><trkpt lat="45.6562755" lon="10.1358282"><ele>549.8</ele><time>2026-05-04T20:12:37.996Z</time></trkpt><trkpt lat="45.6562138" lon="10.1359278"><ele>548.6</ele><time>2026-05-04T20:12:38.996Z</time></trkpt><trkpt lat="45.6561677" lon="10.1360241"><ele>547.4</ele><time>2026-05-04T20:12:39.996Z</time></trkpt><trkpt lat="45.6560972" lon="10.1361325"><ele>546.2</ele><time>2026-05-04T20:12:40.996Z</time></trkpt><trkpt lat="45.656056" lon="10.1362368"><ele>545.0</ele><time>2026-05-04T20:12:41.996Z</time></trkpt><trkpt lat="45.6559747" lon="10.1363475"><ele>545.0</ele><time>2026-05-04T20:12:42.953Z</time></trkpt><trkpt lat="45.6559096" lon="10.1364378"><ele>545.0</ele><time>2026-05-04T20:12:43.95Z</time></trkpt><trkpt lat="45.655858" lon="10.1365359"><ele>545.0</ele><time>2026-05-04T20:12:44.996Z</time></trkpt><trkpt lat="45.6558111" lon="10.1366463"><ele>545.0</ele><time>2026-05-04T20:12:45.996Z</time></trkpt><trkpt lat="45.6557721" lon="10.1367555"><ele>545.0</ele><time>2026-05-04T20:12:46.997Z</time></trkpt><trkpt lat="45.6557202" lon="10.1368804"><ele>548.8</ele><time>2026-05-04T20:12:47.996Z</time></trkpt><trkpt lat="45.6556765" lon="10.1370004"><ele>552.6</ele><time>2026-05-04T20:12:48.996Z</time></trkpt><trkpt lat="45.6556557" lon="10.1371027"><ele>556.4</ele><time>2026-05-04T20:12:49.996Z</time></trkpt><trkpt lat="45.6556235" lon="10.1372011"><ele>560.2</ele><time>2026-05-04T20:12:50.996Z</time></trkpt><trkpt lat="45.6555978" lon="10.1373518"><ele>564.0</ele><time>2026-05-04T20:12:51.996Z</time></trkpt><trkpt lat="45.6555248" lon="10.137466"><ele>564.4</ele><time>2026-05-04T20:12:52.996Z</time></trkpt><trkpt lat="45.6554506" lon="10.1375805"><ele>564.8</ele><time>2026-05-04T20:12:53.996Z</time></trkpt><trkpt lat="45.6553958" lon="10.1377076"><ele>565.2</ele><time>2026-05-04T20:12:54.996Z</time></trkpt><trkpt lat="45.6553311" lon="10.1378213"><ele>565.6</ele><time>2026-05-04T20:12:55.996Z</time></trkpt><trkpt lat="45.6552802" lon="10.1379495"><ele>566.0</ele><time>2026-05-04T20:12:56.996Z</time></trkpt><trkpt lat="45.6552414" lon="10.1380746"><ele>566.0</ele><time>2026-05-04T20:12:57.95Z</time></trkpt><trkpt lat="45.6551908" lon="10.1382045"><ele>566.0</ele><time>2026-05-04T20:12:58.949Z</time></trkpt><trkpt lat="45.6551449" lon="10.1383553"><ele>566.0</ele><time>2026-05-04T20:12:59.949Z</time></trkpt><trkpt lat="45.6551048" lon="10.1384749"><ele>566.0</ele><time>2026-05-04T20:13:00.996Z</time></trkpt><trkpt lat="45.6550484" lon="10.1386191"><ele>566.0</ele><time>2026-05-04T20:13:01.996Z</time></trkpt><trkpt lat="45.6549661" lon="10.1387262"><ele>568.2</ele><time>2026-05-04T20:13:02.996Z</time></trkpt><trkpt lat="45.6548942" lon="10.1388383"><ele>570.4000000000001</ele><time>2026-05-04T20:13:03.996Z</time></trkpt><trkpt lat="45.6548458" lon="10.138989"><ele>572.6</ele><time>2026-05-04T20:13:04.996Z</time></trkpt><trkpt lat="45.6548183" lon="10.1391096"><ele>574.8000000000001</ele><time>2026-05-04T20:13:05.996Z</time></trkpt><trkpt lat="45.6547679" lon="10.1392364"><ele>577.0</ele><time>2026-05-04T20:13:06.996Z</time></trkpt><trkpt lat="45.6547123" lon="10.1393389"><ele>579.4</ele><time>2026-05-04T20:13:07.996Z</time></trkpt><trkpt lat="45.654643" lon="10.1394104"><ele>581.8000000000001</ele><time>2026-05-04T20:13:08.996Z</time></trkpt><trkpt lat="45.6545791" lon="10.1394991"><ele>584.2</ele><time>2026-05-04T20:13:09.997Z</time></trkpt><trkpt lat="45.6544715" lon="10.1395291"><ele>586.6</ele><time>2026-05-04T20:13:10.997Z</time></trkpt><trkpt lat="45.6543764" lon="10.1395543"><ele>589.0</ele><time>2026-05-04T20:13:11.996Z</time></trkpt><trkpt lat="45.6543282" lon="10.1394152"><ele>589.0</ele><time>2026-05-04T20:13:12.996Z</time></trkpt><trkpt lat="45.654284" lon="10.1393023"><ele>589.0</ele><time>2026-05-04T20:13:13.997Z</time></trkpt><trkpt lat="45.6542363" lon="10.1392412"><ele>589.0</ele><time>2026-05-04T20:13:14.996Z</time></trkpt><trkpt lat="45.6541872" lon="10.1391661"><ele>589.0</ele><time>2026-05-04T20:13:15.945Z</time></trkpt><trkpt lat="45.6541151" lon="10.1391491"><ele>589.0</ele><time>2026-05-04T20:13:16.996Z</time></trkpt><trkpt lat="45.654054" lon="10.1391102"><ele>589.0</ele><time>2026-05-04T20:13:17.996Z</time></trkpt><trkpt lat="45.6541133" lon="10.1390406"><ele>589.0</ele><time>2026-05-04T20:13:18.996Z</time></trkpt><trkpt lat="45.6540727" lon="10.1392347"><ele>589.0</ele><time>2026-05-04T20:13:22.996Z</time></trkpt><trkpt lat="45.6541098" lon="10.1393715"><ele>589.0</ele><time>2026-05-04T20:13:24.996Z</time></trkpt><trkpt lat="45.6541613" lon="10.1395912"><ele>589.0</ele><time>2026-05-04T20:13:26.996Z</time></trkpt><trkpt lat="45.6541483" lon="10.1397434"><ele>589.0</ele><time>2026-05-04T20:13:27.983Z</time></trkpt><trkpt lat="45.6541419" lon="10.1398741"><ele>590.75</ele><time>2026-05-04T20:13:28.996Z</time></trkpt><trkpt lat="45.6541183" lon="10.1400267"><ele>592.5</ele><time>2026-05-04T20:13:29.996Z</time></trkpt><trkpt lat="45.6540991" lon="10.1402015"><ele>594.25</ele><time>2026-05-04T20:13:30.996Z</time></trkpt><trkpt lat="45.6540777" lon="10.1403957"><ele>596.0</ele><time>2026-05-04T20:13:31.996Z</time></trkpt><trkpt lat="45.6540648" lon="10.1405561"><ele>597.75</ele><time>2026-05-04T20:13:32.996Z</time></trkpt><trkpt lat="45.6540458" lon="10.1407226"><ele>599.5</ele><time>2026-05-04T20:13:33.996Z</time></trkpt><trkpt lat="45.6540269" lon="10.1409091"><ele>601.25</ele><time>2026-05-04T20:13:34.996Z</time></trkpt><trkpt lat="45.6539945" lon="10.1411164"><ele>603.0</ele><time>2026-05-04T20:13:35.944Z</time></trkpt><trkpt lat="45.6539479" lon="10.1413035"><ele>603.0</ele><time>2026-05-04T20:13:36.996Z</time></trkpt><trkpt lat="45.6538726" lon="10.1415001"><ele>603.0</ele><time>2026-05-04T20:13:37.996Z</time></trkpt><trkpt lat="45.6538027" lon="10.1416586"><ele>603.0</ele><time>2026-05-04T20:13:38.996Z</time></trkpt><trkpt lat="45.653721" lon="10.1418303"><ele>603.0</ele><time>2026-05-04T20:13:39.996Z</time></trkpt><trkpt lat="45.6536507" lon="10.1420206"><ele>602.25</ele><time>2026-05-04T20:13:40.996Z</time></trkpt><trkpt lat="45.6535892" lon="10.14221"><ele>601.5</ele><time>2026-05-04T20:13:41.996Z</time></trkpt><trkpt lat="45.6535728" lon="10.1424139"><ele>600.75</ele><time>2026-05-04T20:13:42.997Z</time></trkpt><trkpt lat="45.6535423" lon="10.142605"><ele>600.0</ele><time>2026-05-04T20:13:43.996Z</time></trkpt><trkpt lat="45.6534905" lon="10.1427931"><ele>600.0</ele><time>2026-05-04T20:13:44.996Z</time></trkpt><trkpt lat="45.65345" lon="10.1429733"><ele>600.0</ele><time>2026-05-04T20:13:45.996Z</time></trkpt><trkpt lat="45.6534134" lon="10.1431488"><ele>600.0</ele><time>2026-05-04T20:13:46.997Z</time></trkpt><trkpt lat="45.6534092" lon="10.1432639"><ele>600.0</ele><time>2026-05-04T20:13:47.955Z</time></trkpt><trkpt lat="45.6533865" lon="10.1433622"><ele>600.0</ele><time>2026-05-04T20:13:48.996Z</time></trkpt><trkpt lat="45.6533634" lon="10.1435364"><ele>600.5</ele><time>2026-05-04T20:13:50.996Z</time></trkpt><trkpt lat="45.6533442" lon="10.1436428"><ele>601.0</ele><time>2026-05-04T20:13:51.946Z</time></trkpt><trkpt lat="45.6533245" lon="10.1437452"><ele>601.5</ele><time>2026-05-04T20:13:52.946Z</time></trkpt><trkpt lat="45.6532938" lon="10.1438346"><ele>602.0</ele><time>2026-05-04T20:13:53.996Z</time></trkpt><trkpt lat="45.6532642" lon="10.1439367"><ele>602.5</ele><time>2026-05-04T20:13:54.996Z</time></trkpt><trkpt lat="45.6532251" lon="10.1440278"><ele>603.0</ele><time>2026-05-04T20:13:55.997Z</time></trkpt><trkpt lat="45.6531785" lon="10.1441388"><ele>603.6666666666666</ele><time>2026-05-04T20:13:56.996Z</time></trkpt><trkpt lat="45.6531359" lon="10.1442456"><ele>604.3333333333334</ele><time>2026-05-04T20:13:57.996Z</time></trkpt><trkpt lat="45.6531207" lon="10.1443682"><ele>605.0</ele><time>2026-05-04T20:13:58.996Z</time></trkpt><trkpt lat="45.6530836" lon="10.1444631"><ele>605.6666666666667</ele><time>2026-05-04T20:13:59.997Z</time></trkpt><trkpt lat="45.6530472" lon="10.1445618"><ele>606.3333333333334</ele><time>2026-05-04T20:14:00.997Z</time></trkpt><trkpt lat="45.6529546" lon="10.1445636"><ele>607.0</ele><time>2026-05-04T20:14:01.997Z</time></trkpt><trkpt lat="45.652875" lon="10.1445047"><ele>607.0</ele><time>2026-05-04T20:14:04.996Z</time></trkpt><trkpt lat="45.6529043" lon="10.1443982"><ele>607.0</ele><time>2026-05-04T20:14:16.996Z</time></trkpt><trkpt lat="45.6529427" lon="10.1443086"><ele>607.0</ele><time>2026-05-04T20:14:22.996Z</time></trkpt><trkpt lat="45.6529323" lon="10.1444044"><ele>607.0</ele><time>2026-05-04T20:14:29.996Z</time></trkpt></trkseg></trk></gpx>